<?xml version="1.0" encoding="UTF-8" standalone="no" ?>
<gpx xmlns="http://www.topografix.com/GPX/1/1" xmlns:xsi="http://www.w3.org/2001/XMLSchema-instance" xsi:schemaLocation="http://www.topografix.com/GPX/1/1 http://www.topografix.com/GPX/1/1/gpx.xsd" version="1.1" creator="VisuGPX - https://www.visugpx.com">
  <metadata>
    <name>Col de la Madeleine - 33629 - UtagawaVTT.com</name>
    <desc><![CDATA[Col de la Madeleine]]></desc>
  </metadata>
  <trk>
    <name><![CDATA[Col de la Madeleine - 33629 - UtagawaVTT.com]]></name>
    <trkseg>
      <trkpt lat="45.14861" lon="5.0174">
        <ele>251.731</ele>
        <time>2022-09-25T12:29:27.000Z</time>
      </trkpt>
      <trkpt lat="45.14717" lon="5.01934">
        <ele>244.717</ele>
        <time>2022-09-25T12:29:27.040Z</time>
      </trkpt>
      <trkpt lat="45.14586" lon="5.02189">
        <ele>239.988</ele>
        <time>2022-09-25T12:29:27.124Z</time>
      </trkpt>
      <trkpt lat="45.14524" lon="5.02253">
        <ele>238.766</ele>
        <time>2022-09-25T12:29:27.224Z</time>
      </trkpt>
      <trkpt lat="45.14492" lon="5.02302">
        <ele>239.124</ele>
        <time>2022-09-25T12:29:27.333Z</time>
      </trkpt>
      <trkpt lat="45.14411" lon="5.02529">
        <ele>253.212</ele>
        <time>2022-09-25T12:29:27.478Z</time>
      </trkpt>
      <trkpt lat="45.14408" lon="5.02575">
        <ele>256.659</ele>
        <time>2022-09-25T12:29:27.630Z</time>
      </trkpt>
      <trkpt lat="45.14493" lon="5.02687">
        <ele>259.26</ele>
        <time>2022-09-25T12:29:27.805Z</time>
      </trkpt>
      <trkpt lat="45.14625" lon="5.02778">
        <ele>255.806</ele>
        <time>2022-09-25T12:29:28.009Z</time>
      </trkpt>
      <trkpt lat="45.14784" lon="5.02944">
        <ele>250.175</ele>
        <time>2022-09-25T12:29:28.253Z</time>
      </trkpt>
      <trkpt lat="45.14914" lon="5.03145">
        <ele>252.691</ele>
        <time>2022-09-25T12:29:28.535Z</time>
      </trkpt>
      <trkpt lat="45.14945" lon="5.03189">
        <ele>254.331</ele>
        <time>2022-09-25T12:29:28.826Z</time>
      </trkpt>
      <trkpt lat="45.14974" lon="5.03217">
        <ele>253.907</ele>
        <time>2022-09-25T12:29:29.124Z</time>
      </trkpt>
      <trkpt lat="45.15189" lon="5.03607">
        <ele>255.091</ele>
        <time>2022-09-25T12:29:29.492Z</time>
      </trkpt>
      <trkpt lat="45.15428" lon="5.03961">
        <ele>261.348</ele>
        <time>2022-09-25T12:29:29.929Z</time>
      </trkpt>
      <trkpt lat="45.15448" lon="5.03965">
        <ele>261.079</ele>
        <time>2022-09-25T12:29:30.371Z</time>
      </trkpt>
      <trkpt lat="45.15495" lon="5.03937">
        <ele>259.065</ele>
        <time>2022-09-25T12:29:30.823Z</time>
      </trkpt>
      <trkpt lat="45.15516" lon="5.03933">
        <ele>258.377</ele>
        <time>2022-09-25T12:29:31.279Z</time>
      </trkpt>
      <trkpt lat="45.15516" lon="5.03965">
        <ele>259.576</ele>
        <time>2022-09-25T12:29:31.740Z</time>
      </trkpt>
      <trkpt lat="45.15513" lon="5.03992">
        <ele>260.712</ele>
        <time>2022-09-25T12:29:32.205Z</time>
      </trkpt>
      <trkpt lat="45.15502" lon="5.04004">
        <ele>261.879</ele>
        <time>2022-09-25T12:29:32.672Z</time>
      </trkpt>
      <trkpt lat="45.15419" lon="5.04022">
        <ele>265.131</ele>
        <time>2022-09-25T12:29:33.156Z</time>
      </trkpt>
      <trkpt lat="45.15397" lon="5.0404">
        <ele>266.28</ele>
        <time>2022-09-25T12:29:33.645Z</time>
      </trkpt>
      <trkpt lat="45.15386" lon="5.0406">
        <ele>267.85</ele>
        <time>2022-09-25T12:29:34.138Z</time>
      </trkpt>
      <trkpt lat="45.1539" lon="5.0414">
        <ele>269.468</ele>
        <time>2022-09-25T12:29:34.642Z</time>
      </trkpt>
      <trkpt lat="45.15386" lon="5.04162">
        <ele>269.785</ele>
        <time>2022-09-25T12:29:35.149Z</time>
      </trkpt>
      <trkpt lat="45.1537" lon="5.04201">
        <ele>270.608</ele>
        <time>2022-09-25T12:29:35.663Z</time>
      </trkpt>
      <trkpt lat="45.15367" lon="5.04224">
        <ele>271.17</ele>
        <time>2022-09-25T12:29:36.180Z</time>
      </trkpt>
      <trkpt lat="45.15313" lon="5.04295">
        <ele>274.732</ele>
        <time>2022-09-25T12:29:36.712Z</time>
      </trkpt>
      <trkpt lat="45.15299" lon="5.04305">
        <ele>274.106</ele>
        <time>2022-09-25T12:29:37.247Z</time>
      </trkpt>
      <trkpt lat="45.15115" lon="5.04303">
        <ele>298.835</ele>
        <time>2022-09-25T12:29:37.819Z</time>
      </trkpt>
      <trkpt lat="45.15091" lon="5.04272">
        <ele>296.879</ele>
        <time>2022-09-25T12:29:38.397Z</time>
      </trkpt>
      <trkpt lat="45.15073" lon="5.04266">
        <ele>296.819</ele>
        <time>2022-09-25T12:29:38.979Z</time>
      </trkpt>
      <trkpt lat="45.1506" lon="5.04269">
        <ele>297.094</ele>
        <time>2022-09-25T12:29:39.563Z</time>
      </trkpt>
      <trkpt lat="45.15042" lon="5.04298">
        <ele>299.649</ele>
        <time>2022-09-25T12:29:40.153Z</time>
      </trkpt>
      <trkpt lat="45.14995" lon="5.04312">
        <ele>301.73</ele>
        <time>2022-09-25T12:29:40.752Z</time>
      </trkpt>
      <trkpt lat="45.14897" lon="5.04297">
        <ele>298.145</ele>
        <time>2022-09-25T12:29:41.371Z</time>
      </trkpt>
      <trkpt lat="45.14902" lon="5.04267">
        <ele>296.07</ele>
        <time>2022-09-25T12:29:41.995Z</time>
      </trkpt>
      <trkpt lat="45.15014" lon="5.04063">
        <ele>288.108</ele>
        <time>2022-09-25T12:29:42.655Z</time>
      </trkpt>
      <trkpt lat="45.15007" lon="5.04046">
        <ele>287.863</ele>
        <time>2022-09-25T12:29:43.318Z</time>
      </trkpt>
      <trkpt lat="45.14923" lon="5.04059">
        <ele>289.946</ele>
        <time>2022-09-25T12:29:43.998Z</time>
      </trkpt>
      <trkpt lat="45.14775" lon="5.04069">
        <ele>293.085</ele>
        <time>2022-09-25T12:29:44.707Z</time>
      </trkpt>
      <trkpt lat="45.14685" lon="5.04095">
        <ele>294.711</ele>
        <time>2022-09-25T12:29:45.435Z</time>
      </trkpt>
      <trkpt lat="45.14652" lon="5.04121">
        <ele>295.491</ele>
        <time>2022-09-25T12:29:46.170Z</time>
      </trkpt>
      <trkpt lat="45.14547" lon="5.04226">
        <ele>296.105</ele>
        <time>2022-09-25T12:29:46.931Z</time>
      </trkpt>
      <trkpt lat="45.14393" lon="5.04338">
        <ele>294.255</ele>
        <time>2022-09-25T12:29:47.727Z</time>
      </trkpt>
      <trkpt lat="45.14301" lon="5.04491">
        <ele>295.109</ele>
        <time>2022-09-25T12:29:48.551Z</time>
      </trkpt>
      <trkpt lat="45.14223" lon="5.04595">
        <ele>289.554</ele>
        <time>2022-09-25T12:29:49.397Z</time>
      </trkpt>
      <trkpt lat="45.14169" lon="5.04691">
        <ele>282.56</ele>
        <time>2022-09-25T12:29:50.260Z</time>
      </trkpt>
      <trkpt lat="45.14169" lon="5.04725">
        <ele>282.059</ele>
        <time>2022-09-25T12:29:51.128Z</time>
      </trkpt>
      <trkpt lat="45.14181" lon="5.04732">
        <ele>283.525</ele>
        <time>2022-09-25T12:29:51.998Z</time>
      </trkpt>
      <trkpt lat="45.14241" lon="5.04729">
        <ele>292.388</ele>
        <time>2022-09-25T12:29:52.881Z</time>
      </trkpt>
      <trkpt lat="45.14244" lon="5.04746">
        <ele>292.982</ele>
        <time>2022-09-25T12:29:53.766Z</time>
      </trkpt>
      <trkpt lat="45.14253" lon="5.04879">
        <ele>288.472</ele>
        <time>2022-09-25T12:29:54.670Z</time>
      </trkpt>
      <trkpt lat="45.14245" lon="5.0493">
        <ele>292.744</ele>
        <time>2022-09-25T12:29:55.581Z</time>
      </trkpt>
      <trkpt lat="45.1425" lon="5.0499">
        <ele>298.931</ele>
        <time>2022-09-25T12:29:56.501Z</time>
      </trkpt>
      <trkpt lat="45.14231" lon="5.05124">
        <ele>310.327</ele>
        <time>2022-09-25T12:29:57.440Z</time>
      </trkpt>
      <trkpt lat="45.14244" lon="5.0526">
        <ele>318.01</ele>
        <time>2022-09-25T12:29:58.399Z</time>
      </trkpt>
      <trkpt lat="45.14249" lon="5.05277">
        <ele>318.873</ele>
        <time>2022-09-25T12:29:59.360Z</time>
      </trkpt>
      <trkpt lat="45.1428" lon="5.05319">
        <ele>321.794</ele>
        <time>2022-09-25T12:30:00.330Z</time>
      </trkpt>
      <trkpt lat="45.14306" lon="5.05373">
        <ele>323.934</ele>
        <time>2022-09-25T12:30:01.309Z</time>
      </trkpt>
      <trkpt lat="45.14322" lon="5.05482">
        <ele>333.207</ele>
        <time>2022-09-25T12:30:02.304Z</time>
      </trkpt>
      <trkpt lat="45.14334" lon="5.05512">
        <ele>336.584</ele>
        <time>2022-09-25T12:30:03.304Z</time>
      </trkpt>
      <trkpt lat="45.14355" lon="5.05533">
        <ele>338.579</ele>
        <time>2022-09-25T12:30:04.309Z</time>
      </trkpt>
      <trkpt lat="45.14406" lon="5.05556">
        <ele>341.473</ele>
        <time>2022-09-25T12:30:05.325Z</time>
      </trkpt>
      <trkpt lat="45.14436" lon="5.05593">
        <ele>343.945</ele>
        <time>2022-09-25T12:30:06.349Z</time>
      </trkpt>
      <trkpt lat="45.14447" lon="5.05624">
        <ele>345.841</ele>
        <time>2022-09-25T12:30:07.378Z</time>
      </trkpt>
      <trkpt lat="45.14434" lon="5.0572">
        <ele>355.359</ele>
        <time>2022-09-25T12:30:08.420Z</time>
      </trkpt>
      <trkpt lat="45.1444" lon="5.05759">
        <ele>358.89</ele>
        <time>2022-09-25T12:30:09.468Z</time>
      </trkpt>
      <trkpt lat="45.14467" lon="5.05769">
        <ele>356.307</ele>
        <time>2022-09-25T12:30:10.522Z</time>
      </trkpt>
      <trkpt lat="45.14563" lon="5.05783">
        <ele>349.973</ele>
        <time>2022-09-25T12:30:11.595Z</time>
      </trkpt>
      <trkpt lat="45.14595" lon="5.05792">
        <ele>349.215</ele>
        <time>2022-09-25T12:30:12.674Z</time>
      </trkpt>
      <trkpt lat="45.14685" lon="5.05831">
        <ele>350.82</ele>
        <time>2022-09-25T12:30:13.772Z</time>
      </trkpt>
      <trkpt lat="45.14772" lon="5.05848">
        <ele>350.557</ele>
        <time>2022-09-25T12:30:14.888Z</time>
      </trkpt>
      <trkpt lat="45.14785" lon="5.05883">
        <ele>352.126</ele>
        <time>2022-09-25T12:30:16.009Z</time>
      </trkpt>
      <trkpt lat="45.14798" lon="5.06057">
        <ele>357.2</ele>
        <time>2022-09-25T12:30:17.155Z</time>
      </trkpt>
      <trkpt lat="45.14798" lon="5.06189">
        <ele>347.767</ele>
        <time>2022-09-25T12:30:18.320Z</time>
      </trkpt>
      <trkpt lat="45.14817" lon="5.06248">
        <ele>349.673</ele>
        <time>2022-09-25T12:30:19.494Z</time>
      </trkpt>
      <trkpt lat="45.14851" lon="5.06309">
        <ele>355.335</ele>
        <time>2022-09-25T12:30:20.679Z</time>
      </trkpt>
      <trkpt lat="45.14881" lon="5.06385">
        <ele>365.957</ele>
        <time>2022-09-25T12:30:21.876Z</time>
      </trkpt>
      <trkpt lat="45.14873" lon="5.06392">
        <ele>365.757</ele>
        <time>2022-09-25T12:30:23.075Z</time>
      </trkpt>
      <trkpt lat="45.14862" lon="5.06393">
        <ele>365.767</ele>
        <time>2022-09-25T12:30:24.276Z</time>
      </trkpt>
      <trkpt lat="45.14777" lon="5.06375">
        <ele>365.725</ele>
        <time>2022-09-25T12:30:25.495Z</time>
      </trkpt>
      <trkpt lat="45.14726" lon="5.06379">
        <ele>368.61</ele>
        <time>2022-09-25T12:30:26.724Z</time>
      </trkpt>
      <trkpt lat="45.1467" lon="5.06453">
        <ele>378.703</ele>
        <time>2022-09-25T12:30:27.968Z</time>
      </trkpt>
      <trkpt lat="45.14621" lon="5.06489">
        <ele>389.05</ele>
        <time>2022-09-25T12:30:29.223Z</time>
      </trkpt>
      <trkpt lat="45.14595" lon="5.0652">
        <ele>394.432</ele>
        <time>2022-09-25T12:30:30.485Z</time>
      </trkpt>
      <trkpt lat="45.14554" lon="5.06607">
        <ele>405.706</ele>
        <time>2022-09-25T12:30:31.762Z</time>
      </trkpt>
      <trkpt lat="45.14557" lon="5.06619">
        <ele>405.786</ele>
        <time>2022-09-25T12:30:33.041Z</time>
      </trkpt>
      <trkpt lat="45.14582" lon="5.06644">
        <ele>403.633</ele>
        <time>2022-09-25T12:30:34.326Z</time>
      </trkpt>
      <trkpt lat="45.14629" lon="5.06679">
        <ele>399.14</ele>
        <time>2022-09-25T12:30:35.621Z</time>
      </trkpt>
      <trkpt lat="45.14651" lon="5.06703">
        <ele>397.101</ele>
        <time>2022-09-25T12:30:36.922Z</time>
      </trkpt>
      <trkpt lat="45.14669" lon="5.06734">
        <ele>394.907</ele>
        <time>2022-09-25T12:30:38.229Z</time>
      </trkpt>
      <trkpt lat="45.14678" lon="5.06769">
        <ele>394.417</ele>
        <time>2022-09-25T12:30:39.541Z</time>
      </trkpt>
      <trkpt lat="45.14676" lon="5.06833">
        <ele>397.405</ele>
        <time>2022-09-25T12:30:40.862Z</time>
      </trkpt>
      <trkpt lat="45.14668" lon="5.06862">
        <ele>400.325</ele>
        <time>2022-09-25T12:30:42.187Z</time>
      </trkpt>
      <trkpt lat="45.1466" lon="5.0697">
        <ele>404.053</ele>
        <time>2022-09-25T12:30:43.528Z</time>
      </trkpt>
      <trkpt lat="45.1466" lon="5.07071">
        <ele>401.748</ele>
        <time>2022-09-25T12:30:44.883Z</time>
      </trkpt>
      <trkpt lat="45.14672" lon="5.07148">
        <ele>401.522</ele>
        <time>2022-09-25T12:30:46.249Z</time>
      </trkpt>
      <trkpt lat="45.1476" lon="5.07348">
        <ele>403.946</ele>
        <time>2022-09-25T12:30:47.648Z</time>
      </trkpt>
      <trkpt lat="45.14797" lon="5.07415">
        <ele>406.333</ele>
        <time>2022-09-25T12:30:49.059Z</time>
      </trkpt>
      <trkpt lat="45.14852" lon="5.07489">
        <ele>409.553</ele>
        <time>2022-09-25T12:30:50.486Z</time>
      </trkpt>
      <trkpt lat="45.14952" lon="5.07646">
        <ele>417.961</ele>
        <time>2022-09-25T12:30:51.943Z</time>
      </trkpt>
      <trkpt lat="45.15007" lon="5.07697">
        <ele>419.453</ele>
        <time>2022-09-25T12:30:53.413Z</time>
      </trkpt>
      <trkpt lat="45.1503" lon="5.07707">
        <ele>419.775</ele>
        <time>2022-09-25T12:30:54.888Z</time>
      </trkpt>
      <trkpt lat="45.15128" lon="5.07711">
        <ele>420.158</ele>
        <time>2022-09-25T12:30:56.382Z</time>
      </trkpt>
      <trkpt lat="45.1523" lon="5.07734">
        <ele>424.81</ele>
        <time>2022-09-25T12:30:57.897Z</time>
      </trkpt>
      <trkpt lat="45.15289" lon="5.07715">
        <ele>429.104</ele>
        <time>2022-09-25T12:30:59.424Z</time>
      </trkpt>
      <trkpt lat="45.15298" lon="5.07707">
        <ele>430.032</ele>
        <time>2022-09-25T12:31:00.953Z</time>
      </trkpt>
      <trkpt lat="45.15323" lon="5.07661">
        <ele>431.077</ele>
        <time>2022-09-25T12:31:02.490Z</time>
      </trkpt>
      <trkpt lat="45.15359" lon="5.07646">
        <ele>434.654</ele>
        <time>2022-09-25T12:31:04.035Z</time>
      </trkpt>
      <trkpt lat="45.15379" lon="5.07654">
        <ele>438.155</ele>
        <time>2022-09-25T12:31:05.584Z</time>
      </trkpt>
      <trkpt lat="45.1543" lon="5.07653">
        <ele>444.826</ele>
        <time>2022-09-25T12:31:07.143Z</time>
      </trkpt>
      <trkpt lat="45.15513" lon="5.07662">
        <ele>460.814</ele>
        <time>2022-09-25T12:31:08.719Z</time>
      </trkpt>
      <trkpt lat="45.15619" lon="5.07734">
        <ele>474.142</ele>
        <time>2022-09-25T12:31:10.318Z</time>
      </trkpt>
      <trkpt lat="45.15645" lon="5.07774">
        <ele>474.752</ele>
        <time>2022-09-25T12:31:11.925Z</time>
      </trkpt>
      <trkpt lat="45.15699" lon="5.07837">
        <ele>473.724</ele>
        <time>2022-09-25T12:31:13.546Z</time>
      </trkpt>
      <trkpt lat="45.15751" lon="5.07866">
        <ele>470.721</ele>
        <time>2022-09-25T12:31:15.178Z</time>
      </trkpt>
      <trkpt lat="45.15813" lon="5.07975">
        <ele>465.642</ele>
        <time>2022-09-25T12:31:16.830Z</time>
      </trkpt>
      <trkpt lat="45.15848" lon="5.08083">
        <ele>463.789</ele>
        <time>2022-09-25T12:31:18.499Z</time>
      </trkpt>
      <trkpt lat="45.15894" lon="5.08345">
        <ele>461.827</ele>
        <time>2022-09-25T12:31:20.206Z</time>
      </trkpt>
      <trkpt lat="45.15926" lon="5.08572">
        <ele>462.811</ele>
        <time>2022-09-25T12:31:21.946Z</time>
      </trkpt>
      <trkpt lat="45.15937" lon="5.08594">
        <ele>462.942</ele>
        <time>2022-09-25T12:31:23.690Z</time>
      </trkpt>
      <trkpt lat="45.16015" lon="5.08673">
        <ele>462.201</ele>
        <time>2022-09-25T12:31:25.453Z</time>
      </trkpt>
      <trkpt lat="45.1612" lon="5.08753">
        <ele>458.848</ele>
        <time>2022-09-25T12:31:27.240Z</time>
      </trkpt>
      <trkpt lat="45.1615" lon="5.08812">
        <ele>460.834</ele>
        <time>2022-09-25T12:31:29.037Z</time>
      </trkpt>
      <trkpt lat="45.16275" lon="5.08864">
        <ele>459.553</ele>
        <time>2022-09-25T12:31:30.860Z</time>
      </trkpt>
      <trkpt lat="45.1631" lon="5.08873">
        <ele>458.467</ele>
        <time>2022-09-25T12:31:32.690Z</time>
      </trkpt>
      <trkpt lat="45.16393" lon="5.08906">
        <ele>455.586</ele>
        <time>2022-09-25T12:31:34.537Z</time>
      </trkpt>
      <trkpt lat="45.16525" lon="5.09033">
        <ele>456.913</ele>
        <time>2022-09-25T12:31:36.416Z</time>
      </trkpt>
      <trkpt lat="45.16629" lon="5.09075">
        <ele>454.23</ele>
        <time>2022-09-25T12:31:38.317Z</time>
      </trkpt>
      <trkpt lat="45.16691" lon="5.09084">
        <ele>449.254</ele>
        <time>2022-09-25T12:31:40.230Z</time>
      </trkpt>
      <trkpt lat="45.16734" lon="5.09083">
        <ele>445.135</ele>
        <time>2022-09-25T12:31:42.152Z</time>
      </trkpt>
      <trkpt lat="45.16827" lon="5.09168">
        <ele>443.702</ele>
        <time>2022-09-25T12:31:44.096Z</time>
      </trkpt>
      <trkpt lat="45.16867" lon="5.09181">
        <ele>440.001</ele>
        <time>2022-09-25T12:31:46.048Z</time>
      </trkpt>
      <trkpt lat="45.16911" lon="5.09183">
        <ele>434.744</ele>
        <time>2022-09-25T12:31:48.009Z</time>
      </trkpt>
      <trkpt lat="45.16929" lon="5.09189">
        <ele>433.289</ele>
        <time>2022-09-25T12:31:49.974Z</time>
      </trkpt>
      <trkpt lat="45.1702" lon="5.09191">
        <ele>422.57</ele>
        <time>2022-09-25T12:31:51.957Z</time>
      </trkpt>
      <trkpt lat="45.17061" lon="5.092">
        <ele>418.633</ele>
        <time>2022-09-25T12:31:53.948Z</time>
      </trkpt>
      <trkpt lat="45.17109" lon="5.09202">
        <ele>412.845</ele>
        <time>2022-09-25T12:31:55.949Z</time>
      </trkpt>
      <trkpt lat="45.17152" lon="5.09216">
        <ele>408.402</ele>
        <time>2022-09-25T12:31:57.959Z</time>
      </trkpt>
      <trkpt lat="45.17245" lon="5.09209">
        <ele>398.12</ele>
        <time>2022-09-25T12:31:59.987Z</time>
      </trkpt>
      <trkpt lat="45.17332" lon="5.09232">
        <ele>392.813</ele>
        <time>2022-09-25T12:32:02.033Z</time>
      </trkpt>
      <trkpt lat="45.17373" lon="5.09251">
        <ele>391.656</ele>
        <time>2022-09-25T12:32:04.088Z</time>
      </trkpt>
      <trkpt lat="45.17446" lon="5.09271">
        <ele>388.073</ele>
        <time>2022-09-25T12:32:06.158Z</time>
      </trkpt>
      <trkpt lat="45.17482" lon="5.09292">
        <ele>386.841</ele>
        <time>2022-09-25T12:32:08.236Z</time>
      </trkpt>
      <trkpt lat="45.17802" lon="5.09591">
        <ele>383.806</ele>
        <time>2022-09-25T12:32:10.390Z</time>
      </trkpt>
      <trkpt lat="45.17848" lon="5.09645">
        <ele>382.208</ele>
        <time>2022-09-25T12:32:12.556Z</time>
      </trkpt>
      <trkpt lat="45.17883" lon="5.09667">
        <ele>379.323</ele>
        <time>2022-09-25T12:32:14.730Z</time>
      </trkpt>
      <trkpt lat="45.17962" lon="5.09756">
        <ele>372.75</ele>
        <time>2022-09-25T12:32:16.924Z</time>
      </trkpt>
      <trkpt lat="45.17992" lon="5.09794">
        <ele>367.957</ele>
        <time>2022-09-25T12:32:19.126Z</time>
      </trkpt>
      <trkpt lat="45.18007" lon="5.09842">
        <ele>361.555</ele>
        <time>2022-09-25T12:32:21.335Z</time>
      </trkpt>
      <trkpt lat="45.18017" lon="5.09899">
        <ele>352.253</ele>
        <time>2022-09-25T12:32:23.553Z</time>
      </trkpt>
      <trkpt lat="45.18015" lon="5.09959">
        <ele>350.977</ele>
        <time>2022-09-25T12:32:25.779Z</time>
      </trkpt>
      <trkpt lat="45.18058" lon="5.09984">
        <ele>352.86</ele>
        <time>2022-09-25T12:32:28.015Z</time>
      </trkpt>
      <trkpt lat="45.18099" lon="5.09976">
        <ele>354.651</ele>
        <time>2022-09-25T12:32:30.259Z</time>
      </trkpt>
      <trkpt lat="45.1815" lon="5.09984">
        <ele>362.02</ele>
        <time>2022-09-25T12:32:32.513Z</time>
      </trkpt>
      <trkpt lat="45.18188" lon="5.09966">
        <ele>365.045</ele>
        <time>2022-09-25T12:32:34.775Z</time>
      </trkpt>
      <trkpt lat="45.18204" lon="5.10016">
        <ele>371.833</ele>
        <time>2022-09-25T12:32:37.045Z</time>
      </trkpt>
      <trkpt lat="45.18258" lon="5.10083">
        <ele>379.121</ele>
        <time>2022-09-25T12:32:39.329Z</time>
      </trkpt>
      <trkpt lat="45.18304" lon="5.10175">
        <ele>383.753</ele>
        <time>2022-09-25T12:32:41.629Z</time>
      </trkpt>
      <trkpt lat="45.18349" lon="5.10228">
        <ele>385.175</ele>
        <time>2022-09-25T12:32:43.941Z</time>
      </trkpt>
      <trkpt lat="45.18485" lon="5.10332">
        <ele>378.218</ele>
        <time>2022-09-25T12:32:46.284Z</time>
      </trkpt>
      <trkpt lat="45.18514" lon="5.10365">
        <ele>376.106</ele>
        <time>2022-09-25T12:32:48.634Z</time>
      </trkpt>
      <trkpt lat="45.18537" lon="5.10408">
        <ele>374.756</ele>
        <time>2022-09-25T12:32:50.992Z</time>
      </trkpt>
      <trkpt lat="45.18555" lon="5.10455">
        <ele>374.089</ele>
        <time>2022-09-25T12:32:53.357Z</time>
      </trkpt>
      <trkpt lat="45.18579" lon="5.10554">
        <ele>371.65</ele>
        <time>2022-09-25T12:32:55.737Z</time>
      </trkpt>
      <trkpt lat="45.18595" lon="5.10662">
        <ele>367.514</ele>
        <time>2022-09-25T12:32:58.133Z</time>
      </trkpt>
      <trkpt lat="45.18597" lon="5.10713">
        <ele>365.145</ele>
        <time>2022-09-25T12:33:00.536Z</time>
      </trkpt>
      <trkpt lat="45.18587" lon="5.10764">
        <ele>364.717</ele>
        <time>2022-09-25T12:33:02.946Z</time>
      </trkpt>
      <trkpt lat="45.1856" lon="5.10814">
        <ele>365.722</ele>
        <time>2022-09-25T12:33:05.365Z</time>
      </trkpt>
      <trkpt lat="45.18559" lon="5.10871">
        <ele>363.677</ele>
        <time>2022-09-25T12:33:07.792Z</time>
      </trkpt>
      <trkpt lat="45.18566" lon="5.10921">
        <ele>361.758</ele>
        <time>2022-09-25T12:33:10.227Z</time>
      </trkpt>
      <trkpt lat="45.18551" lon="5.10966">
        <ele>362.03</ele>
        <time>2022-09-25T12:33:12.669Z</time>
      </trkpt>
      <trkpt lat="45.1856" lon="5.11008">
        <ele>364.149</ele>
        <time>2022-09-25T12:33:15.117Z</time>
      </trkpt>
      <trkpt lat="45.18513" lon="5.11185">
        <ele>373.82</ele>
        <time>2022-09-25T12:33:17.592Z</time>
      </trkpt>
      <trkpt lat="45.18524" lon="5.11186">
        <ele>376.107</ele>
        <time>2022-09-25T12:33:20.069Z</time>
      </trkpt>
      <trkpt lat="45.18538" lon="5.11167">
        <ele>377.088</ele>
        <time>2022-09-25T12:33:22.550Z</time>
      </trkpt>
      <trkpt lat="45.18584" lon="5.11134">
        <ele>382.241</ele>
        <time>2022-09-25T12:33:25.041Z</time>
      </trkpt>
      <trkpt lat="45.18598" lon="5.11114">
        <ele>382.766</ele>
        <time>2022-09-25T12:33:27.536Z</time>
      </trkpt>
      <trkpt lat="45.18605" lon="5.1111">
        <ele>383.261</ele>
        <time>2022-09-25T12:33:30.032Z</time>
      </trkpt>
      <trkpt lat="45.18611" lon="5.11117">
        <ele>384.643</ele>
        <time>2022-09-25T12:33:32.530Z</time>
      </trkpt>
      <trkpt lat="45.18614" lon="5.11156">
        <ele>388.452</ele>
        <time>2022-09-25T12:33:35.033Z</time>
      </trkpt>
      <trkpt lat="45.18655" lon="5.11266">
        <ele>399.288</ele>
        <time>2022-09-25T12:33:37.554Z</time>
      </trkpt>
      <trkpt lat="45.18705" lon="5.11366">
        <ele>406.85</ele>
        <time>2022-09-25T12:33:40.092Z</time>
      </trkpt>
      <trkpt lat="45.18708" lon="5.11409">
        <ele>409.488</ele>
        <time>2022-09-25T12:33:42.637Z</time>
      </trkpt>
      <trkpt lat="45.18681" lon="5.11574">
        <ele>421.088</ele>
        <time>2022-09-25T12:33:45.205Z</time>
      </trkpt>
      <trkpt lat="45.18659" lon="5.1166">
        <ele>428.671</ele>
        <time>2022-09-25T12:33:47.786Z</time>
      </trkpt>
      <trkpt lat="45.18652" lon="5.11722">
        <ele>434.206</ele>
        <time>2022-09-25T12:33:50.376Z</time>
      </trkpt>
      <trkpt lat="45.18591" lon="5.11873">
        <ele>443.424</ele>
        <time>2022-09-25T12:33:52.991Z</time>
      </trkpt>
      <trkpt lat="45.18563" lon="5.12014">
        <ele>447.802</ele>
        <time>2022-09-25T12:33:55.627Z</time>
      </trkpt>
      <trkpt lat="45.18523" lon="5.12137">
        <ele>454.975</ele>
        <time>2022-09-25T12:33:58.282Z</time>
      </trkpt>
      <trkpt lat="45.18507" lon="5.12232">
        <ele>458.767</ele>
        <time>2022-09-25T12:34:00.950Z</time>
      </trkpt>
      <trkpt lat="45.18501" lon="5.12333">
        <ele>462.475</ele>
        <time>2022-09-25T12:34:03.633Z</time>
      </trkpt>
      <trkpt lat="45.18489" lon="5.12369">
        <ele>462.435</ele>
        <time>2022-09-25T12:34:06.321Z</time>
      </trkpt>
      <trkpt lat="45.18492" lon="5.12612">
        <ele>478.695</ele>
        <time>2022-09-25T12:34:09.044Z</time>
      </trkpt>
      <trkpt lat="45.18524" lon="5.12714">
        <ele>486.151</ele>
        <time>2022-09-25T12:34:11.783Z</time>
      </trkpt>
      <trkpt lat="45.18539" lon="5.12744">
        <ele>487.835</ele>
        <time>2022-09-25T12:34:14.527Z</time>
      </trkpt>
      <trkpt lat="45.18614" lon="5.12825">
        <ele>485.784</ele>
        <time>2022-09-25T12:34:17.290Z</time>
      </trkpt>
      <trkpt lat="45.18638" lon="5.12866">
        <ele>483.829</ele>
        <time>2022-09-25T12:34:20.060Z</time>
      </trkpt>
      <trkpt lat="45.18672" lon="5.12908">
        <ele>481.027</ele>
        <time>2022-09-25T12:34:22.839Z</time>
      </trkpt>
      <trkpt lat="45.18705" lon="5.1293">
        <ele>478.95</ele>
        <time>2022-09-25T12:34:25.626Z</time>
      </trkpt>
      <trkpt lat="45.18738" lon="5.12925">
        <ele>476.106</ele>
        <time>2022-09-25T12:34:28.419Z</time>
      </trkpt>
      <trkpt lat="45.18785" lon="5.12875">
        <ele>471.778</ele>
        <time>2022-09-25T12:34:31.224Z</time>
      </trkpt>
      <trkpt lat="45.18818" lon="5.12865">
        <ele>474.696</ele>
        <time>2022-09-25T12:34:34.036Z</time>
      </trkpt>
      <trkpt lat="45.18834" lon="5.12844">
        <ele>474.185</ele>
        <time>2022-09-25T12:34:36.852Z</time>
      </trkpt>
      <trkpt lat="45.18856" lon="5.12778">
        <ele>468.144</ele>
        <time>2022-09-25T12:34:39.678Z</time>
      </trkpt>
      <trkpt lat="45.18877" lon="5.1276">
        <ele>468.979</ele>
        <time>2022-09-25T12:34:42.509Z</time>
      </trkpt>
      <trkpt lat="45.18895" lon="5.12759">
        <ele>471.85</ele>
        <time>2022-09-25T12:34:45.344Z</time>
      </trkpt>
      <trkpt lat="45.18912" lon="5.12798">
        <ele>479.781</ele>
        <time>2022-09-25T12:34:48.185Z</time>
      </trkpt>
      <trkpt lat="45.18915" lon="5.12824">
        <ele>483.362</ele>
        <time>2022-09-25T12:34:51.030Z</time>
      </trkpt>
      <trkpt lat="45.18911" lon="5.12877">
        <ele>487.316</ele>
        <time>2022-09-25T12:34:53.883Z</time>
      </trkpt>
      <trkpt lat="45.18876" lon="5.12974">
        <ele>492.759</ele>
        <time>2022-09-25T12:34:56.751Z</time>
      </trkpt>
      <trkpt lat="45.18868" lon="5.13019">
        <ele>497.353</ele>
        <time>2022-09-25T12:34:59.626Z</time>
      </trkpt>
      <trkpt lat="45.1887" lon="5.13062">
        <ele>501.696</ele>
        <time>2022-09-25T12:35:02.507Z</time>
      </trkpt>
      <trkpt lat="45.18888" lon="5.13157">
        <ele>500.754</ele>
        <time>2022-09-25T12:35:05.402Z</time>
      </trkpt>
      <trkpt lat="45.18885" lon="5.13226">
        <ele>497.889</ele>
        <time>2022-09-25T12:35:08.306Z</time>
      </trkpt>
      <trkpt lat="45.18863" lon="5.13338">
        <ele>495.388</ele>
        <time>2022-09-25T12:35:11.227Z</time>
      </trkpt>
      <trkpt lat="45.18838" lon="5.13409">
        <ele>497.339</ele>
        <time>2022-09-25T12:35:14.159Z</time>
      </trkpt>
      <trkpt lat="45.18821" lon="5.13521">
        <ele>502.827</ele>
        <time>2022-09-25T12:35:17.107Z</time>
      </trkpt>
      <trkpt lat="45.18791" lon="5.13572">
        <ele>501.905</ele>
        <time>2022-09-25T12:35:20.065Z</time>
      </trkpt>
      <trkpt lat="45.1868" lon="5.13651">
        <ele>501.005</ele>
        <time>2022-09-25T12:35:23.047Z</time>
      </trkpt>
      <trkpt lat="45.18636" lon="5.13695">
        <ele>501.326</ele>
        <time>2022-09-25T12:35:26.040Z</time>
      </trkpt>
      <trkpt lat="45.18618" lon="5.13721">
        <ele>503.754</ele>
        <time>2022-09-25T12:35:29.038Z</time>
      </trkpt>
      <trkpt lat="45.18612" lon="5.13793">
        <ele>504.003</ele>
        <time>2022-09-25T12:35:32.047Z</time>
      </trkpt>
      <trkpt lat="45.18575" lon="5.13933">
        <ele>501.212</ele>
        <time>2022-09-25T12:35:35.077Z</time>
      </trkpt>
      <trkpt lat="45.18571" lon="5.13967">
        <ele>501.68</ele>
        <time>2022-09-25T12:35:38.112Z</time>
      </trkpt>
      <trkpt lat="45.18575" lon="5.14087">
        <ele>505.554</ele>
        <time>2022-09-25T12:35:41.164Z</time>
      </trkpt>
      <trkpt lat="45.18608" lon="5.14175">
        <ele>505.508</ele>
        <time>2022-09-25T12:35:44.230Z</time>
      </trkpt>
      <trkpt lat="45.18642" lon="5.14294">
        <ele>508.955</ele>
        <time>2022-09-25T12:35:47.314Z</time>
      </trkpt>
      <trkpt lat="45.18682" lon="5.14377">
        <ele>509.505</ele>
        <time>2022-09-25T12:35:50.412Z</time>
      </trkpt>
      <trkpt lat="45.18713" lon="5.14465">
        <ele>510.729</ele>
        <time>2022-09-25T12:35:53.524Z</time>
      </trkpt>
      <trkpt lat="45.18769" lon="5.14552">
        <ele>510.496</ele>
        <time>2022-09-25T12:35:56.653Z</time>
      </trkpt>
      <trkpt lat="45.18798" lon="5.1464">
        <ele>512.872</ele>
        <time>2022-09-25T12:35:59.795Z</time>
      </trkpt>
      <trkpt lat="45.18828" lon="5.14698">
        <ele>514.612</ele>
        <time>2022-09-25T12:36:02.948Z</time>
      </trkpt>
      <trkpt lat="45.18857" lon="5.14869">
        <ele>521.177</ele>
        <time>2022-09-25T12:36:06.125Z</time>
      </trkpt>
      <trkpt lat="45.18862" lon="5.14918">
        <ele>520.945</ele>
        <time>2022-09-25T12:36:09.310Z</time>
      </trkpt>
      <trkpt lat="45.18851" lon="5.15113">
        <ele>514.699</ele>
        <time>2022-09-25T12:36:12.522Z</time>
      </trkpt>
      <trkpt lat="45.18867" lon="5.15181">
        <ele>513.238</ele>
        <time>2022-09-25T12:36:15.744Z</time>
      </trkpt>
      <trkpt lat="45.18862" lon="5.15208">
        <ele>515.016</ele>
        <time>2022-09-25T12:36:18.970Z</time>
      </trkpt>
      <trkpt lat="45.18829" lon="5.153">
        <ele>522.155</ele>
        <time>2022-09-25T12:36:22.211Z</time>
      </trkpt>
      <trkpt lat="45.18797" lon="5.15349">
        <ele>523.849</ele>
        <time>2022-09-25T12:36:25.461Z</time>
      </trkpt>
      <trkpt lat="45.18789" lon="5.15378">
        <ele>524.198</ele>
        <time>2022-09-25T12:36:28.716Z</time>
      </trkpt>
      <trkpt lat="45.1886" lon="5.15585">
        <ele>526.173</ele>
        <time>2022-09-25T12:36:32.003Z</time>
      </trkpt>
      <trkpt lat="45.18905" lon="5.1568">
        <ele>527.963</ele>
        <time>2022-09-25T12:36:35.306Z</time>
      </trkpt>
      <trkpt lat="45.18939" lon="5.15724">
        <ele>528</ele>
        <time>2022-09-25T12:36:38.619Z</time>
      </trkpt>
      <trkpt lat="45.19015" lon="5.15773">
        <ele>528.54</ele>
        <time>2022-09-25T12:36:41.948Z</time>
      </trkpt>
      <trkpt lat="45.19071" lon="5.15777">
        <ele>529.281</ele>
        <time>2022-09-25T12:36:45.288Z</time>
      </trkpt>
      <trkpt lat="45.19149" lon="5.15815">
        <ele>529.67</ele>
        <time>2022-09-25T12:36:48.645Z</time>
      </trkpt>
      <trkpt lat="45.19231" lon="5.15878">
        <ele>530.89</ele>
        <time>2022-09-25T12:36:52.021Z</time>
      </trkpt>
      <trkpt lat="45.19231" lon="5.15906">
        <ele>530.985</ele>
        <time>2022-09-25T12:36:55.401Z</time>
      </trkpt>
      <trkpt lat="45.19186" lon="5.16028">
        <ele>530.649</ele>
        <time>2022-09-25T12:36:58.800Z</time>
      </trkpt>
      <trkpt lat="45.19181" lon="5.16063">
        <ele>530.178</ele>
        <time>2022-09-25T12:37:02.204Z</time>
      </trkpt>
      <trkpt lat="45.19228" lon="5.16159">
        <ele>529.162</ele>
        <time>2022-09-25T12:37:05.625Z</time>
      </trkpt>
      <trkpt lat="45.19271" lon="5.16263">
        <ele>526.48</ele>
        <time>2022-09-25T12:37:09.063Z</time>
      </trkpt>
      <trkpt lat="45.19282" lon="5.16424">
        <ele>522.503</ele>
        <time>2022-09-25T12:37:12.524Z</time>
      </trkpt>
      <trkpt lat="45.19264" lon="5.16549">
        <ele>523.575</ele>
        <time>2022-09-25T12:37:16.003Z</time>
      </trkpt>
      <trkpt lat="45.1929" lon="5.16664">
        <ele>524.352</ele>
        <time>2022-09-25T12:37:19.499Z</time>
      </trkpt>
      <trkpt lat="45.19357" lon="5.16787">
        <ele>527.89</ele>
        <time>2022-09-25T12:37:23.017Z</time>
      </trkpt>
      <trkpt lat="45.19382" lon="5.16884">
        <ele>532.177</ele>
        <time>2022-09-25T12:37:26.549Z</time>
      </trkpt>
      <trkpt lat="45.19388" lon="5.16947">
        <ele>533</ele>
        <time>2022-09-25T12:37:30.090Z</time>
      </trkpt>
      <trkpt lat="45.19377" lon="5.16979">
        <ele>533</ele>
        <time>2022-09-25T12:37:33.636Z</time>
      </trkpt>
      <trkpt lat="45.19361" lon="5.1699">
        <ele>533</ele>
        <time>2022-09-25T12:37:37.186Z</time>
      </trkpt>
      <trkpt lat="45.19385" lon="5.16954">
        <ele>533</ele>
        <time>2022-09-25T12:37:40.743Z</time>
      </trkpt>
      <trkpt lat="45.19386" lon="5.16931">
        <ele>533</ele>
        <time>2022-09-25T12:37:44.303Z</time>
      </trkpt>
      <trkpt lat="45.19352" lon="5.16801">
        <ele>528.944</ele>
        <time>2022-09-25T12:37:47.883Z</time>
      </trkpt>
      <trkpt lat="45.19356" lon="5.16787">
        <ele>527.95</ele>
        <time>2022-09-25T12:37:51.465Z</time>
      </trkpt>
      <trkpt lat="45.19389" lon="5.16819">
        <ele>528.712</ele>
        <time>2022-09-25T12:37:55.055Z</time>
      </trkpt>
      <trkpt lat="45.19438" lon="5.16833">
        <ele>527.52</ele>
        <time>2022-09-25T12:37:58.655Z</time>
      </trkpt>
      <trkpt lat="45.19506" lon="5.16809">
        <ele>521.258</ele>
        <time>2022-09-25T12:38:02.269Z</time>
      </trkpt>
      <trkpt lat="45.19575" lon="5.16814">
        <ele>510.168</ele>
        <time>2022-09-25T12:38:05.897Z</time>
      </trkpt>
      <trkpt lat="45.19585" lon="5.16809">
        <ele>507.905</ele>
        <time>2022-09-25T12:38:09.527Z</time>
      </trkpt>
      <trkpt lat="45.19601" lon="5.16842">
        <ele>504.615</ele>
        <time>2022-09-25T12:38:13.163Z</time>
      </trkpt>
      <trkpt lat="45.19608" lon="5.16844">
        <ele>503.145</ele>
        <time>2022-09-25T12:38:16.800Z</time>
      </trkpt>
      <trkpt lat="45.19599" lon="5.16845">
        <ele>505.034</ele>
        <time>2022-09-25T12:38:20.439Z</time>
      </trkpt>
      <trkpt lat="45.19582" lon="5.16821">
        <ele>508.751</ele>
        <time>2022-09-25T12:38:24.083Z</time>
      </trkpt>
      <trkpt lat="45.19507" lon="5.16821">
        <ele>521.688</ele>
        <time>2022-09-25T12:38:27.741Z</time>
      </trkpt>
      <trkpt lat="45.19443" lon="5.16845">
        <ele>528.205</ele>
        <time>2022-09-25T12:38:31.413Z</time>
      </trkpt>
      <trkpt lat="45.19397" lon="5.16835">
        <ele>529.614</ele>
        <time>2022-09-25T12:38:35.094Z</time>
      </trkpt>
      <trkpt lat="45.19437" lon="5.16894">
        <ele>530.432</ele>
        <time>2022-09-25T12:38:38.787Z</time>
      </trkpt>
      <trkpt lat="45.19467" lon="5.16968">
        <ele>530.249</ele>
        <time>2022-09-25T12:38:42.492Z</time>
      </trkpt>
      <trkpt lat="45.195" lon="5.17121">
        <ele>530.257</ele>
        <time>2022-09-25T12:38:46.220Z</time>
      </trkpt>
      <trkpt lat="45.19498" lon="5.17145">
        <ele>530.138</ele>
        <time>2022-09-25T12:38:49.951Z</time>
      </trkpt>
      <trkpt lat="45.19483" lon="5.17182">
        <ele>530.649</ele>
        <time>2022-09-25T12:38:53.688Z</time>
      </trkpt>
      <trkpt lat="45.1944" lon="5.17256">
        <ele>531.107</ele>
        <time>2022-09-25T12:38:57.439Z</time>
      </trkpt>
      <trkpt lat="45.19411" lon="5.17292">
        <ele>531.09</ele>
        <time>2022-09-25T12:39:01.197Z</time>
      </trkpt>
      <trkpt lat="45.19363" lon="5.17386">
        <ele>530.145</ele>
        <time>2022-09-25T12:39:04.972Z</time>
      </trkpt>
      <trkpt lat="45.1935" lon="5.17551">
        <ele>525.647</ele>
        <time>2022-09-25T12:39:08.770Z</time>
      </trkpt>
      <trkpt lat="45.19356" lon="5.17702">
        <ele>521.965</ele>
        <time>2022-09-25T12:39:12.590Z</time>
      </trkpt>
      <trkpt lat="45.19349" lon="5.17862">
        <ele>520.185</ele>
        <time>2022-09-25T12:39:16.432Z</time>
      </trkpt>
      <trkpt lat="45.1936" lon="5.17979">
        <ele>516.958</ele>
        <time>2022-09-25T12:39:20.291Z</time>
      </trkpt>
      <trkpt lat="45.19351" lon="5.18067">
        <ele>517.393</ele>
        <time>2022-09-25T12:39:24.163Z</time>
      </trkpt>
      <trkpt lat="45.19355" lon="5.18102">
        <ele>515.177</ele>
        <time>2022-09-25T12:39:28.040Z</time>
      </trkpt>
      <trkpt lat="45.19306" lon="5.18264">
        <ele>517.134</ele>
        <time>2022-09-25T12:39:31.941Z</time>
      </trkpt>
      <trkpt lat="45.19308" lon="5.18433">
        <ele>513.933</ele>
        <time>2022-09-25T12:39:35.866Z</time>
      </trkpt>
      <trkpt lat="45.19338" lon="5.18506">
        <ele>506.935</ele>
        <time>2022-09-25T12:39:39.803Z</time>
      </trkpt>
      <trkpt lat="45.19356" lon="5.18567">
        <ele>501.752</ele>
        <time>2022-09-25T12:39:43.750Z</time>
      </trkpt>
      <trkpt lat="45.19425" lon="5.1871">
        <ele>488.361</ele>
        <time>2022-09-25T12:39:47.721Z</time>
      </trkpt>
      <trkpt lat="45.19468" lon="5.18842">
        <ele>483.559</ele>
        <time>2022-09-25T12:39:51.713Z</time>
      </trkpt>
      <trkpt lat="45.19492" lon="5.18879">
        <ele>481.918</ele>
        <time>2022-09-25T12:39:55.712Z</time>
      </trkpt>
      <trkpt lat="45.19509" lon="5.18919">
        <ele>480.16</ele>
        <time>2022-09-25T12:39:59.717Z</time>
      </trkpt>
      <trkpt lat="45.19512" lon="5.1897">
        <ele>479.312</ele>
        <time>2022-09-25T12:40:03.730Z</time>
      </trkpt>
      <trkpt lat="45.195" lon="5.19047">
        <ele>478.073</ele>
        <time>2022-09-25T12:40:07.754Z</time>
      </trkpt>
      <trkpt lat="45.19469" lon="5.19123">
        <ele>479.419</ele>
        <time>2022-09-25T12:40:11.790Z</time>
      </trkpt>
      <trkpt lat="45.19448" lon="5.19192">
        <ele>483.006</ele>
        <time>2022-09-25T12:40:15.837Z</time>
      </trkpt>
      <trkpt lat="45.19463" lon="5.19341">
        <ele>489.755</ele>
        <time>2022-09-25T12:40:19.905Z</time>
      </trkpt>
      <trkpt lat="45.19457" lon="5.19468">
        <ele>494.047</ele>
        <time>2022-09-25T12:40:23.991Z</time>
      </trkpt>
      <trkpt lat="45.19462" lon="5.19552">
        <ele>494.45</ele>
        <time>2022-09-25T12:40:28.089Z</time>
      </trkpt>
      <trkpt lat="45.19442" lon="5.19631">
        <ele>493</ele>
        <time>2022-09-25T12:40:32.199Z</time>
      </trkpt>
      <trkpt lat="45.19409" lon="5.19685">
        <ele>494.439</ele>
        <time>2022-09-25T12:40:36.319Z</time>
      </trkpt>
      <trkpt lat="45.19396" lon="5.19778">
        <ele>494.396</ele>
        <time>2022-09-25T12:40:40.452Z</time>
      </trkpt>
      <trkpt lat="45.19395" lon="5.19857">
        <ele>493.038</ele>
        <time>2022-09-25T12:40:44.597Z</time>
      </trkpt>
      <trkpt lat="45.19419" lon="5.19887">
        <ele>490.923</ele>
        <time>2022-09-25T12:40:48.748Z</time>
      </trkpt>
      <trkpt lat="45.19629" lon="5.19986">
        <ele>493.736</ele>
        <time>2022-09-25T12:40:52.943Z</time>
      </trkpt>
      <trkpt lat="45.19658" lon="5.20009">
        <ele>496.152</ele>
        <time>2022-09-25T12:40:57.145Z</time>
      </trkpt>
      <trkpt lat="45.19735" lon="5.20155">
        <ele>500.73</ele>
        <time>2022-09-25T12:41:01.373Z</time>
      </trkpt>
      <trkpt lat="45.19785" lon="5.20225">
        <ele>508.379</ele>
        <time>2022-09-25T12:41:05.615Z</time>
      </trkpt>
      <trkpt lat="45.19769" lon="5.2031">
        <ele>509.483</ele>
        <time>2022-09-25T12:41:09.869Z</time>
      </trkpt>
      <trkpt lat="45.19777" lon="5.20394">
        <ele>513.169</ele>
        <time>2022-09-25T12:41:14.135Z</time>
      </trkpt>
      <trkpt lat="45.19783" lon="5.20409">
        <ele>514.381</ele>
        <time>2022-09-25T12:41:18.404Z</time>
      </trkpt>
      <trkpt lat="45.19793" lon="5.20391">
        <ele>515.668</ele>
        <time>2022-09-25T12:41:22.676Z</time>
      </trkpt>
      <trkpt lat="45.19806" lon="5.20333">
        <ele>516.033</ele>
        <time>2022-09-25T12:41:26.956Z</time>
      </trkpt>
      <trkpt lat="45.19858" lon="5.20282">
        <ele>523.384</ele>
        <time>2022-09-25T12:41:31.249Z</time>
      </trkpt>
      <trkpt lat="45.19866" lon="5.20261">
        <ele>524.315</ele>
        <time>2022-09-25T12:41:35.545Z</time>
      </trkpt>
      <trkpt lat="45.19854" lon="5.2022">
        <ele>522.924</ele>
        <time>2022-09-25T12:41:39.848Z</time>
      </trkpt>
      <trkpt lat="45.19844" lon="5.20133">
        <ele>525.39</ele>
        <time>2022-09-25T12:41:44.163Z</time>
      </trkpt>
      <trkpt lat="45.19848" lon="5.20068">
        <ele>528.135</ele>
        <time>2022-09-25T12:41:48.487Z</time>
      </trkpt>
      <trkpt lat="45.19843" lon="5.20002">
        <ele>528.89</ele>
        <time>2022-09-25T12:41:52.821Z</time>
      </trkpt>
      <trkpt lat="45.19863" lon="5.19827">
        <ele>536.834</ele>
        <time>2022-09-25T12:41:57.180Z</time>
      </trkpt>
      <trkpt lat="45.19861" lon="5.19745">
        <ele>538.268</ele>
        <time>2022-09-25T12:42:01.550Z</time>
      </trkpt>
      <trkpt lat="45.19874" lon="5.19684">
        <ele>541.364</ele>
        <time>2022-09-25T12:42:05.929Z</time>
      </trkpt>
      <trkpt lat="45.19889" lon="5.19659">
        <ele>544.02</ele>
        <time>2022-09-25T12:42:10.313Z</time>
      </trkpt>
      <trkpt lat="45.19905" lon="5.19644">
        <ele>546.88</ele>
        <time>2022-09-25T12:42:14.701Z</time>
      </trkpt>
      <trkpt lat="45.19994" lon="5.19645">
        <ele>559.98</ele>
        <time>2022-09-25T12:42:19.107Z</time>
      </trkpt>
      <trkpt lat="45.20034" lon="5.19637">
        <ele>564.053</ele>
        <time>2022-09-25T12:42:23.521Z</time>
      </trkpt>
      <trkpt lat="45.20076" lon="5.19638">
        <ele>566.646</ele>
        <time>2022-09-25T12:42:27.943Z</time>
      </trkpt>
      <trkpt lat="45.20085" lon="5.19649">
        <ele>567.406</ele>
        <time>2022-09-25T12:42:32.368Z</time>
      </trkpt>
      <trkpt lat="45.20103" lon="5.19711">
        <ele>570.379</ele>
        <time>2022-09-25T12:42:36.802Z</time>
      </trkpt>
      <trkpt lat="45.2012" lon="5.1975">
        <ele>573.107</ele>
        <time>2022-09-25T12:42:41.242Z</time>
      </trkpt>
      <trkpt lat="45.20135" lon="5.19866">
        <ele>580.955</ele>
        <time>2022-09-25T12:42:45.699Z</time>
      </trkpt>
      <trkpt lat="45.20131" lon="5.1991">
        <ele>582.014</ele>
        <time>2022-09-25T12:42:50.162Z</time>
      </trkpt>
      <trkpt lat="45.20145" lon="5.19984">
        <ele>582.81</ele>
        <time>2022-09-25T12:42:54.636Z</time>
      </trkpt>
      <trkpt lat="45.20177" lon="5.20055">
        <ele>586.316</ele>
        <time>2022-09-25T12:42:59.122Z</time>
      </trkpt>
      <trkpt lat="45.20199" lon="5.20093">
        <ele>587.57</ele>
        <time>2022-09-25T12:43:03.615Z</time>
      </trkpt>
      <trkpt lat="45.20225" lon="5.20122">
        <ele>589.442</ele>
        <time>2022-09-25T12:43:08.115Z</time>
      </trkpt>
      <trkpt lat="45.20242" lon="5.20158">
        <ele>590.678</ele>
        <time>2022-09-25T12:43:12.621Z</time>
      </trkpt>
      <trkpt lat="45.20256" lon="5.20211">
        <ele>592.029</ele>
        <time>2022-09-25T12:43:17.135Z</time>
      </trkpt>
      <trkpt lat="45.20261" lon="5.20268">
        <ele>592.831</ele>
        <time>2022-09-25T12:43:21.657Z</time>
      </trkpt>
      <trkpt lat="45.20287" lon="5.20337">
        <ele>593.721</ele>
        <time>2022-09-25T12:43:26.190Z</time>
      </trkpt>
      <trkpt lat="45.20363" lon="5.2046">
        <ele>593.882</ele>
        <time>2022-09-25T12:43:30.746Z</time>
      </trkpt>
      <trkpt lat="45.20401" lon="5.2047">
        <ele>594.7</ele>
        <time>2022-09-25T12:43:35.310Z</time>
      </trkpt>
      <trkpt lat="45.20447" lon="5.20499">
        <ele>596.921</ele>
        <time>2022-09-25T12:43:39.884Z</time>
      </trkpt>
      <trkpt lat="45.20486" lon="5.20558">
        <ele>597.979</ele>
        <time>2022-09-25T12:43:44.469Z</time>
      </trkpt>
      <trkpt lat="45.20528" lon="5.20604">
        <ele>596.387</ele>
        <time>2022-09-25T12:43:49.065Z</time>
      </trkpt>
      <trkpt lat="45.20605" lon="5.20668">
        <ele>593.178</ele>
        <time>2022-09-25T12:43:53.679Z</time>
      </trkpt>
      <trkpt lat="45.20665" lon="5.20767">
        <ele>589.047</ele>
        <time>2022-09-25T12:43:58.311Z</time>
      </trkpt>
      <trkpt lat="45.20668" lon="5.20735">
        <ele>589.65</ele>
        <time>2022-09-25T12:44:02.948Z</time>
      </trkpt>
      <trkpt lat="45.20665" lon="5.20718">
        <ele>590.353</ele>
        <time>2022-09-25T12:44:07.587Z</time>
      </trkpt>
      <trkpt lat="45.2066" lon="5.20744">
        <ele>589.592</ele>
        <time>2022-09-25T12:44:12.230Z</time>
      </trkpt>
      <trkpt lat="45.20662" lon="5.20705">
        <ele>590.999</ele>
        <time>2022-09-25T12:44:16.879Z</time>
      </trkpt>
      <trkpt lat="45.20672" lon="5.20689">
        <ele>591.079</ele>
        <time>2022-09-25T12:44:21.531Z</time>
      </trkpt>
      <trkpt lat="45.20666" lon="5.20689">
        <ele>591.39</ele>
        <time>2022-09-25T12:44:26.184Z</time>
      </trkpt>
      <trkpt lat="45.20661" lon="5.20703">
        <ele>591.101</ele>
        <time>2022-09-25T12:44:30.839Z</time>
      </trkpt>
      <trkpt lat="45.20653" lon="5.2066">
        <ele>593.256</ele>
        <time>2022-09-25T12:44:35.500Z</time>
      </trkpt>
      <trkpt lat="45.20664" lon="5.20593">
        <ele>594.445</ele>
        <time>2022-09-25T12:44:40.171Z</time>
      </trkpt>
      <trkpt lat="45.20662" lon="5.20498">
        <ele>597.008</ele>
        <time>2022-09-25T12:44:44.855Z</time>
      </trkpt>
      <trkpt lat="45.20667" lon="5.20421">
        <ele>597.104</ele>
        <time>2022-09-25T12:44:49.550Z</time>
      </trkpt>
      <trkpt lat="45.20683" lon="5.20285">
        <ele>594.3</ele>
        <time>2022-09-25T12:44:54.265Z</time>
      </trkpt>
      <trkpt lat="45.20706" lon="5.20158">
        <ele>591.993</ele>
        <time>2022-09-25T12:44:58.998Z</time>
      </trkpt>
      <trkpt lat="45.20717" lon="5.20119">
        <ele>591.655</ele>
        <time>2022-09-25T12:45:03.737Z</time>
      </trkpt>
      <trkpt lat="45.20734" lon="5.20091">
        <ele>590.65</ele>
        <time>2022-09-25T12:45:08.482Z</time>
      </trkpt>
      <trkpt lat="45.20735" lon="5.20025">
        <ele>588.721</ele>
        <time>2022-09-25T12:45:13.236Z</time>
      </trkpt>
      <trkpt lat="45.20693" lon="5.19891">
        <ele>583.373</ele>
        <time>2022-09-25T12:45:18.011Z</time>
      </trkpt>
      <trkpt lat="45.20683" lon="5.19841">
        <ele>580.02</ele>
        <time>2022-09-25T12:45:22.793Z</time>
      </trkpt>
      <trkpt lat="45.20701" lon="5.19639">
        <ele>571.365</ele>
        <time>2022-09-25T12:45:27.604Z</time>
      </trkpt>
      <trkpt lat="45.20692" lon="5.19532">
        <ele>567.569</ele>
        <time>2022-09-25T12:45:32.430Z</time>
      </trkpt>
      <trkpt lat="45.20675" lon="5.19442">
        <ele>566.648</ele>
        <time>2022-09-25T12:45:37.269Z</time>
      </trkpt>
      <trkpt lat="45.2067" lon="5.19187">
        <ele>564.785</ele>
        <time>2022-09-25T12:45:42.144Z</time>
      </trkpt>
      <trkpt lat="45.206" lon="5.18963">
        <ele>560.624</ele>
        <time>2022-09-25T12:45:47.054Z</time>
      </trkpt>
      <trkpt lat="45.20577" lon="5.18861">
        <ele>559.401</ele>
        <time>2022-09-25T12:45:51.979Z</time>
      </trkpt>
      <trkpt lat="45.20536" lon="5.18758">
        <ele>554.509</ele>
        <time>2022-09-25T12:45:56.921Z</time>
      </trkpt>
      <trkpt lat="45.2052" lon="5.18635">
        <ele>549.909</ele>
        <time>2022-09-25T12:46:01.881Z</time>
      </trkpt>
      <trkpt lat="45.20498" lon="5.18312">
        <ele>542.746</ele>
        <time>2022-09-25T12:46:06.886Z</time>
      </trkpt>
      <trkpt lat="45.20481" lon="5.18232">
        <ele>540.428</ele>
        <time>2022-09-25T12:46:11.903Z</time>
      </trkpt>
      <trkpt lat="45.2044" lon="5.18098">
        <ele>533.912</ele>
        <time>2022-09-25T12:46:16.941Z</time>
      </trkpt>
      <trkpt lat="45.2042" lon="5.18053">
        <ele>531.731</ele>
        <time>2022-09-25T12:46:21.986Z</time>
      </trkpt>
      <trkpt lat="45.20396" lon="5.18012">
        <ele>530.156</ele>
        <time>2022-09-25T12:46:27.039Z</time>
      </trkpt>
      <trkpt lat="45.20334" lon="5.1795">
        <ele>527.746</ele>
        <time>2022-09-25T12:46:32.107Z</time>
      </trkpt>
      <trkpt lat="45.20265" lon="5.17856">
        <ele>524.142</ele>
        <time>2022-09-25T12:46:37.194Z</time>
      </trkpt>
      <trkpt lat="45.20232" lon="5.1784">
        <ele>523.158</ele>
        <time>2022-09-25T12:46:42.288Z</time>
      </trkpt>
      <trkpt lat="45.20195" lon="5.17837">
        <ele>520.779</ele>
        <time>2022-09-25T12:46:47.390Z</time>
      </trkpt>
      <trkpt lat="45.20128" lon="5.17838">
        <ele>509.571</ele>
        <time>2022-09-25T12:46:52.505Z</time>
      </trkpt>
      <trkpt lat="45.20091" lon="5.1785">
        <ele>500.801</ele>
        <time>2022-09-25T12:46:57.627Z</time>
      </trkpt>
      <trkpt lat="45.20063" lon="5.17846">
        <ele>494.371</ele>
        <time>2022-09-25T12:47:02.755Z</time>
      </trkpt>
      <trkpt lat="45.20012" lon="5.17781">
        <ele>481.563</ele>
        <time>2022-09-25T12:47:07.897Z</time>
      </trkpt>
      <trkpt lat="45.1999" lon="5.17706">
        <ele>474.969</ele>
        <time>2022-09-25T12:47:13.050Z</time>
      </trkpt>
      <trkpt lat="45.1996" lon="5.17686">
        <ele>471.078</ele>
        <time>2022-09-25T12:47:18.210Z</time>
      </trkpt>
      <trkpt lat="45.20042" lon="5.17464">
        <ele>462.047</ele>
        <time>2022-09-25T12:47:23.405Z</time>
      </trkpt>
      <trkpt lat="45.2004" lon="5.17419">
        <ele>459.805</ele>
        <time>2022-09-25T12:47:28.607Z</time>
      </trkpt>
      <trkpt lat="45.20021" lon="5.17324">
        <ele>452.209</ele>
        <time>2022-09-25T12:47:33.823Z</time>
      </trkpt>
      <trkpt lat="45.20023" lon="5.17204">
        <ele>440.404</ele>
        <time>2022-09-25T12:47:39.056Z</time>
      </trkpt>
      <trkpt lat="45.20016" lon="5.17131">
        <ele>441.379</ele>
        <time>2022-09-25T12:47:44.299Z</time>
      </trkpt>
      <trkpt lat="45.20027" lon="5.17082">
        <ele>443.574</ele>
        <time>2022-09-25T12:47:49.549Z</time>
      </trkpt>
      <trkpt lat="45.20037" lon="5.1687">
        <ele>443.7</ele>
        <time>2022-09-25T12:47:54.829Z</time>
      </trkpt>
      <trkpt lat="45.20047" lon="5.1683">
        <ele>443.552</ele>
        <time>2022-09-25T12:48:00.115Z</time>
      </trkpt>
      <trkpt lat="45.20066" lon="5.1679">
        <ele>440.535</ele>
        <time>2022-09-25T12:48:05.408Z</time>
      </trkpt>
      <trkpt lat="45.20072" lon="5.16747">
        <ele>435.547</ele>
        <time>2022-09-25T12:48:10.707Z</time>
      </trkpt>
      <trkpt lat="45.20066" lon="5.1669">
        <ele>429.191</ele>
        <time>2022-09-25T12:48:16.015Z</time>
      </trkpt>
      <trkpt lat="45.20067" lon="5.16551">
        <ele>434.323</ele>
        <time>2022-09-25T12:48:21.342Z</time>
      </trkpt>
      <trkpt lat="45.20061" lon="5.1648">
        <ele>438.03</ele>
        <time>2022-09-25T12:48:26.679Z</time>
      </trkpt>
      <trkpt lat="45.20065" lon="5.16447">
        <ele>439.707</ele>
        <time>2022-09-25T12:48:32.021Z</time>
      </trkpt>
      <trkpt lat="45.20077" lon="5.16472">
        <ele>440.393</ele>
        <time>2022-09-25T12:48:37.367Z</time>
      </trkpt>
      <trkpt lat="45.20171" lon="5.1652">
        <ele>453.755</ele>
        <time>2022-09-25T12:48:42.733Z</time>
      </trkpt>
      <trkpt lat="45.20307" lon="5.16616">
        <ele>466.781</ele>
        <time>2022-09-25T12:48:48.130Z</time>
      </trkpt>
      <trkpt lat="45.20442" lon="5.16691">
        <ele>480.45</ele>
        <time>2022-09-25T12:48:53.556Z</time>
      </trkpt>
      <trkpt lat="45.205" lon="5.1671">
        <ele>484.125</ele>
        <time>2022-09-25T12:48:58.994Z</time>
      </trkpt>
      <trkpt lat="45.2056" lon="5.16696">
        <ele>487.074</ele>
        <time>2022-09-25T12:49:04.444Z</time>
      </trkpt>
      <trkpt lat="45.20595" lon="5.16706">
        <ele>490.062</ele>
        <time>2022-09-25T12:49:09.901Z</time>
      </trkpt>
      <trkpt lat="45.20621" lon="5.16707">
        <ele>492.579</ele>
        <time>2022-09-25T12:49:15.363Z</time>
      </trkpt>
      <trkpt lat="45.20715" lon="5.16747">
        <ele>500.687</ele>
        <time>2022-09-25T12:49:20.845Z</time>
      </trkpt>
      <trkpt lat="45.2074" lon="5.16773">
        <ele>501.117</ele>
        <time>2022-09-25T12:49:26.333Z</time>
      </trkpt>
      <trkpt lat="45.20828" lon="5.16792">
        <ele>503.41</ele>
        <time>2022-09-25T12:49:31.839Z</time>
      </trkpt>
      <trkpt lat="45.20882" lon="5.16787">
        <ele>509.345</ele>
        <time>2022-09-25T12:49:37.356Z</time>
      </trkpt>
      <trkpt lat="45.20904" lon="5.16766">
        <ele>512.903</ele>
        <time>2022-09-25T12:49:42.878Z</time>
      </trkpt>
      <trkpt lat="45.20914" lon="5.16703">
        <ele>517.278</ele>
        <time>2022-09-25T12:49:48.409Z</time>
      </trkpt>
      <trkpt lat="45.20966" lon="5.16539">
        <ele>525.125</ele>
        <time>2022-09-25T12:49:53.966Z</time>
      </trkpt>
      <trkpt lat="45.20968" lon="5.16476">
        <ele>525.603</ele>
        <time>2022-09-25T12:49:59.531Z</time>
      </trkpt>
      <trkpt lat="45.2098" lon="5.16411">
        <ele>525.967</ele>
        <time>2022-09-25T12:50:05.106Z</time>
      </trkpt>
      <trkpt lat="45.20972" lon="5.16386">
        <ele>525.833</ele>
        <time>2022-09-25T12:50:10.685Z</time>
      </trkpt>
      <trkpt lat="45.20951" lon="5.1635">
        <ele>525.163</ele>
        <time>2022-09-25T12:50:16.270Z</time>
      </trkpt>
      <trkpt lat="45.20923" lon="5.16318">
        <ele>524.693</ele>
        <time>2022-09-25T12:50:21.863Z</time>
      </trkpt>
      <trkpt lat="45.20899" lon="5.16307">
        <ele>523.518</ele>
        <time>2022-09-25T12:50:27.461Z</time>
      </trkpt>
      <trkpt lat="45.20855" lon="5.16274">
        <ele>524.389</ele>
        <time>2022-09-25T12:50:33.069Z</time>
      </trkpt>
      <trkpt lat="45.20833" lon="5.16265">
        <ele>523.99</ele>
        <time>2022-09-25T12:50:38.681Z</time>
      </trkpt>
      <trkpt lat="45.20782" lon="5.16219">
        <ele>524.81</ele>
        <time>2022-09-25T12:50:44.305Z</time>
      </trkpt>
      <trkpt lat="45.20707" lon="5.16107">
        <ele>522.469</ele>
        <time>2022-09-25T12:50:49.951Z</time>
      </trkpt>
      <trkpt lat="45.20671" lon="5.15994">
        <ele>524.079</ele>
        <time>2022-09-25T12:50:55.615Z</time>
      </trkpt>
      <trkpt lat="45.20683" lon="5.15956">
        <ele>524.1</ele>
        <time>2022-09-25T12:51:01.284Z</time>
      </trkpt>
      <trkpt lat="45.20705" lon="5.15941">
        <ele>525.246</ele>
        <time>2022-09-25T12:51:06.958Z</time>
      </trkpt>
      <trkpt lat="45.20735" lon="5.15883">
        <ele>527.596</ele>
        <time>2022-09-25T12:51:12.642Z</time>
      </trkpt>
      <trkpt lat="45.20745" lon="5.15873">
        <ele>528.206</ele>
        <time>2022-09-25T12:51:18.329Z</time>
      </trkpt>
      <trkpt lat="45.20771" lon="5.15865">
        <ele>529.497</ele>
        <time>2022-09-25T12:51:24.021Z</time>
      </trkpt>
      <trkpt lat="45.20832" lon="5.15757">
        <ele>530.129</ele>
        <time>2022-09-25T12:51:29.733Z</time>
      </trkpt>
      <trkpt lat="45.2087" lon="5.15706">
        <ele>528.57</ele>
        <time>2022-09-25T12:51:35.455Z</time>
      </trkpt>
      <trkpt lat="45.20923" lon="5.15674">
        <ele>526.941</ele>
        <time>2022-09-25T12:51:41.189Z</time>
      </trkpt>
      <trkpt lat="45.20994" lon="5.15688">
        <ele>524.083</ele>
        <time>2022-09-25T12:51:46.937Z</time>
      </trkpt>
      <trkpt lat="45.21023" lon="5.15668">
        <ele>523.371</ele>
        <time>2022-09-25T12:51:52.692Z</time>
      </trkpt>
      <trkpt lat="45.21043" lon="5.15634">
        <ele>522.405</ele>
        <time>2022-09-25T12:51:58.453Z</time>
      </trkpt>
      <trkpt lat="45.2105" lon="5.15598">
        <ele>521.947</ele>
        <time>2022-09-25T12:52:04.219Z</time>
      </trkpt>
      <trkpt lat="45.21049" lon="5.15562">
        <ele>521.557</ele>
        <time>2022-09-25T12:52:09.990Z</time>
      </trkpt>
      <trkpt lat="45.21014" lon="5.15387">
        <ele>520.951</ele>
        <time>2022-09-25T12:52:15.787Z</time>
      </trkpt>
      <trkpt lat="45.20979" lon="5.15257">
        <ele>520.021</ele>
        <time>2022-09-25T12:52:21.604Z</time>
      </trkpt>
      <trkpt lat="45.2097" lon="5.15126">
        <ele>516.805</ele>
        <time>2022-09-25T12:52:27.439Z</time>
      </trkpt>
      <trkpt lat="45.20962" lon="5.15089">
        <ele>516.812</ele>
        <time>2022-09-25T12:52:33.280Z</time>
      </trkpt>
      <trkpt lat="45.20966" lon="5.15015">
        <ele>515.46</ele>
        <time>2022-09-25T12:52:39.131Z</time>
      </trkpt>
      <trkpt lat="45.20963" lon="5.14981">
        <ele>515.854</ele>
        <time>2022-09-25T12:52:44.987Z</time>
      </trkpt>
      <trkpt lat="45.20943" lon="5.14945">
        <ele>515.801</ele>
        <time>2022-09-25T12:52:50.849Z</time>
      </trkpt>
      <trkpt lat="45.20967" lon="5.14877">
        <ele>514.708</ele>
        <time>2022-09-25T12:52:56.722Z</time>
      </trkpt>
      <trkpt lat="45.20968" lon="5.14804">
        <ele>513.568</ele>
        <time>2022-09-25T12:53:02.605Z</time>
      </trkpt>
      <trkpt lat="45.21014" lon="5.14679">
        <ele>512.176</ele>
        <time>2022-09-25T12:53:08.508Z</time>
      </trkpt>
      <trkpt lat="45.2103" lon="5.14579">
        <ele>511.98</ele>
        <time>2022-09-25T12:53:14.426Z</time>
      </trkpt>
      <trkpt lat="45.20953" lon="5.14366">
        <ele>509.534</ele>
        <time>2022-09-25T12:53:20.378Z</time>
      </trkpt>
      <trkpt lat="45.2094" lon="5.14315">
        <ele>509.64</ele>
        <time>2022-09-25T12:53:26.337Z</time>
      </trkpt>
      <trkpt lat="45.21056" lon="5.14202">
        <ele>511.655</ele>
        <time>2022-09-25T12:53:32.325Z</time>
      </trkpt>
      <trkpt lat="45.21106" lon="5.141">
        <ele>505.981</ele>
        <time>2022-09-25T12:53:38.330Z</time>
      </trkpt>
      <trkpt lat="45.21098" lon="5.14083">
        <ele>505.775</ele>
        <time>2022-09-25T12:53:44.338Z</time>
      </trkpt>
      <trkpt lat="45.21089" lon="5.14076">
        <ele>506.117</ele>
        <time>2022-09-25T12:53:50.348Z</time>
      </trkpt>
      <trkpt lat="45.21029" lon="5.14071">
        <ele>507.646</ele>
        <time>2022-09-25T12:53:56.370Z</time>
      </trkpt>
      <trkpt lat="45.21018" lon="5.1406">
        <ele>506.683</ele>
        <time>2022-09-25T12:54:02.395Z</time>
      </trkpt>
      <trkpt lat="45.20995" lon="5.13971">
        <ele>499.578</ele>
        <time>2022-09-25T12:54:08.433Z</time>
      </trkpt>
      <trkpt lat="45.20953" lon="5.13873">
        <ele>487.6</ele>
        <time>2022-09-25T12:54:14.487Z</time>
      </trkpt>
      <trkpt lat="45.20922" lon="5.13854">
        <ele>480.18</ele>
        <time>2022-09-25T12:54:20.548Z</time>
      </trkpt>
      <trkpt lat="45.20889" lon="5.13853">
        <ele>472.829</ele>
        <time>2022-09-25T12:54:26.616Z</time>
      </trkpt>
      <trkpt lat="45.20854" lon="5.13864">
        <ele>470.583</ele>
        <time>2022-09-25T12:54:32.691Z</time>
      </trkpt>
      <trkpt lat="45.20836" lon="5.13847">
        <ele>467.269</ele>
        <time>2022-09-25T12:54:38.770Z</time>
      </trkpt>
      <trkpt lat="45.20816" lon="5.13779">
        <ele>455.656</ele>
        <time>2022-09-25T12:54:44.860Z</time>
      </trkpt>
      <trkpt lat="45.20731" lon="5.13623">
        <ele>453.37</ele>
        <time>2022-09-25T12:54:50.977Z</time>
      </trkpt>
      <trkpt lat="45.20705" lon="5.13598">
        <ele>454.682</ele>
        <time>2022-09-25T12:54:57.101Z</time>
      </trkpt>
      <trkpt lat="45.20595" lon="5.13534">
        <ele>461.226</ele>
        <time>2022-09-25T12:55:03.249Z</time>
      </trkpt>
      <trkpt lat="45.20549" lon="5.13497">
        <ele>461.256</ele>
        <time>2022-09-25T12:55:09.407Z</time>
      </trkpt>
      <trkpt lat="45.20535" lon="5.13462">
        <ele>458.74</ele>
        <time>2022-09-25T12:55:15.571Z</time>
      </trkpt>
      <trkpt lat="45.20468" lon="5.13371">
        <ele>454.356</ele>
        <time>2022-09-25T12:55:21.753Z</time>
      </trkpt>
      <trkpt lat="45.20381" lon="5.13215">
        <ele>442.301</ele>
        <time>2022-09-25T12:55:27.964Z</time>
      </trkpt>
      <trkpt lat="45.20343" lon="5.13159">
        <ele>435.65</ele>
        <time>2022-09-25T12:55:34.186Z</time>
      </trkpt>
      <trkpt lat="45.20155" lon="5.12993">
        <ele>420.179</ele>
        <time>2022-09-25T12:55:40.452Z</time>
      </trkpt>
      <trkpt lat="45.20173" lon="5.12972">
        <ele>416.703</ele>
        <time>2022-09-25T12:55:46.722Z</time>
      </trkpt>
      <trkpt lat="45.20258" lon="5.12918">
        <ele>403.267</ele>
        <time>2022-09-25T12:55:53.011Z</time>
      </trkpt>
      <trkpt lat="45.2043" lon="5.1279">
        <ele>373.915</ele>
        <time>2022-09-25T12:55:59.339Z</time>
      </trkpt>
      <trkpt lat="45.20486" lon="5.1279">
        <ele>371.889</ele>
        <time>2022-09-25T12:56:05.678Z</time>
      </trkpt>
      <trkpt lat="45.20526" lon="5.12753">
        <ele>370.753</ele>
        <time>2022-09-25T12:56:12.027Z</time>
      </trkpt>
      <trkpt lat="45.20615" lon="5.12705">
        <ele>374.783</ele>
        <time>2022-09-25T12:56:18.395Z</time>
      </trkpt>
      <trkpt lat="45.20641" lon="5.12671">
        <ele>377.54</ele>
        <time>2022-09-25T12:56:24.770Z</time>
      </trkpt>
      <trkpt lat="45.20683" lon="5.12652">
        <ele>380.233</ele>
        <time>2022-09-25T12:56:31.154Z</time>
      </trkpt>
      <trkpt lat="45.20703" lon="5.12629">
        <ele>382.857</ele>
        <time>2022-09-25T12:56:37.543Z</time>
      </trkpt>
      <trkpt lat="45.2068" lon="5.12549">
        <ele>389.506</ele>
        <time>2022-09-25T12:56:43.944Z</time>
      </trkpt>
      <trkpt lat="45.2068" lon="5.12456">
        <ele>399.419</ele>
        <time>2022-09-25T12:56:50.358Z</time>
      </trkpt>
      <trkpt lat="45.20651" lon="5.12265">
        <ele>411.694</ele>
        <time>2022-09-25T12:56:56.800Z</time>
      </trkpt>
      <trkpt lat="45.2065" lon="5.12164">
        <ele>414.664</ele>
        <time>2022-09-25T12:57:03.256Z</time>
      </trkpt>
      <trkpt lat="45.20667" lon="5.1213">
        <ele>417.23</ele>
        <time>2022-09-25T12:57:09.718Z</time>
      </trkpt>
      <trkpt lat="45.20691" lon="5.12113">
        <ele>421.016</ele>
        <time>2022-09-25T12:57:16.185Z</time>
      </trkpt>
      <trkpt lat="45.20715" lon="5.12108">
        <ele>424.905</ele>
        <time>2022-09-25T12:57:22.657Z</time>
      </trkpt>
      <trkpt lat="45.20748" lon="5.12113">
        <ele>429.146</ele>
        <time>2022-09-25T12:57:29.136Z</time>
      </trkpt>
      <trkpt lat="45.20762" lon="5.12104">
        <ele>431.309</ele>
        <time>2022-09-25T12:57:35.618Z</time>
      </trkpt>
      <trkpt lat="45.20804" lon="5.12041">
        <ele>440.788</ele>
        <time>2022-09-25T12:57:42.112Z</time>
      </trkpt>
      <trkpt lat="45.20864" lon="5.11919">
        <ele>455.04</ele>
        <time>2022-09-25T12:57:48.627Z</time>
      </trkpt>
      <trkpt lat="45.2091" lon="5.11883">
        <ele>462.297</ele>
        <time>2022-09-25T12:57:55.153Z</time>
      </trkpt>
      <trkpt lat="45.20953" lon="5.11828">
        <ele>465.578</ele>
        <time>2022-09-25T12:58:01.690Z</time>
      </trkpt>
      <trkpt lat="45.21011" lon="5.11602">
        <ele>477.527</ele>
        <time>2022-09-25T12:58:08.261Z</time>
      </trkpt>
      <trkpt lat="45.21026" lon="5.11501">
        <ele>484.328</ele>
        <time>2022-09-25T12:58:14.847Z</time>
      </trkpt>
      <trkpt lat="45.21025" lon="5.11459">
        <ele>487.119</ele>
        <time>2022-09-25T12:58:21.439Z</time>
      </trkpt>
      <trkpt lat="45.21032" lon="5.1142">
        <ele>490.163</ele>
        <time>2022-09-25T12:58:28.037Z</time>
      </trkpt>
      <trkpt lat="45.21061" lon="5.11359">
        <ele>495.075</ele>
        <time>2022-09-25T12:58:34.645Z</time>
      </trkpt>
      <trkpt lat="45.21153" lon="5.11205">
        <ele>502</ele>
        <time>2022-09-25T12:58:41.281Z</time>
      </trkpt>
      <trkpt lat="45.21155" lon="5.11191">
        <ele>502</ele>
        <time>2022-09-25T12:58:47.919Z</time>
      </trkpt>
      <trkpt lat="45.21133" lon="5.11152">
        <ele>502</ele>
        <time>2022-09-25T12:58:54.564Z</time>
      </trkpt>
      <trkpt lat="45.21115" lon="5.11061">
        <ele>498.23</ele>
        <time>2022-09-25T12:59:01.223Z</time>
      </trkpt>
      <trkpt lat="45.211" lon="5.11029">
        <ele>496.675</ele>
        <time>2022-09-25T12:59:07.887Z</time>
      </trkpt>
      <trkpt lat="45.21093" lon="5.10983">
        <ele>491.773</ele>
        <time>2022-09-25T12:59:14.558Z</time>
      </trkpt>
      <trkpt lat="45.21072" lon="5.10949">
        <ele>490.172</ele>
        <time>2022-09-25T12:59:21.235Z</time>
      </trkpt>
      <trkpt lat="45.2105" lon="5.10928">
        <ele>490.54</ele>
        <time>2022-09-25T12:59:27.918Z</time>
      </trkpt>
      <trkpt lat="45.20999" lon="5.10858">
        <ele>491.24</ele>
        <time>2022-09-25T12:59:34.615Z</time>
      </trkpt>
      <trkpt lat="45.20949" lon="5.10742">
        <ele>492.17</ele>
        <time>2022-09-25T12:59:41.331Z</time>
      </trkpt>
      <trkpt lat="45.20933" lon="5.10682">
        <ele>490.289</ele>
        <time>2022-09-25T12:59:48.056Z</time>
      </trkpt>
      <trkpt lat="45.2092" lon="5.10655">
        <ele>490.288</ele>
        <time>2022-09-25T12:59:54.786Z</time>
      </trkpt>
      <trkpt lat="45.20932" lon="5.10602">
        <ele>491.065</ele>
        <time>2022-09-25T13:00:01.524Z</time>
      </trkpt>
      <trkpt lat="45.2095" lon="5.1056">
        <ele>493.274</ele>
        <time>2022-09-25T13:00:08.269Z</time>
      </trkpt>
      <trkpt lat="45.20997" lon="5.10484">
        <ele>496.347</ele>
        <time>2022-09-25T13:00:15.028Z</time>
      </trkpt>
      <trkpt lat="45.21042" lon="5.10382">
        <ele>498.962</ele>
        <time>2022-09-25T13:00:21.804Z</time>
      </trkpt>
      <trkpt lat="45.21083" lon="5.10314">
        <ele>500.487</ele>
        <time>2022-09-25T13:00:28.592Z</time>
      </trkpt>
      <trkpt lat="45.21079" lon="5.10282">
        <ele>501.021</ele>
        <time>2022-09-25T13:00:35.385Z</time>
      </trkpt>
      <trkpt lat="45.21047" lon="5.10213">
        <ele>500.229</ele>
        <time>2022-09-25T13:00:42.190Z</time>
      </trkpt>
      <trkpt lat="45.2099" lon="5.1018">
        <ele>499.545</ele>
        <time>2022-09-25T13:00:49.007Z</time>
      </trkpt>
      <trkpt lat="45.20958" lon="5.10145">
        <ele>497.81</ele>
        <time>2022-09-25T13:00:55.832Z</time>
      </trkpt>
      <trkpt lat="45.20922" lon="5.10077">
        <ele>496.227</ele>
        <time>2022-09-25T13:01:02.669Z</time>
      </trkpt>
      <trkpt lat="45.20834" lon="5.09962">
        <ele>497.328</ele>
        <time>2022-09-25T13:01:09.530Z</time>
      </trkpt>
      <trkpt lat="45.20773" lon="5.09796">
        <ele>493.61</ele>
        <time>2022-09-25T13:01:16.418Z</time>
      </trkpt>
      <trkpt lat="45.20712" lon="5.0974">
        <ele>491.86</ele>
        <time>2022-09-25T13:01:23.320Z</time>
      </trkpt>
      <trkpt lat="45.20647" lon="5.09619">
        <ele>492.468</ele>
        <time>2022-09-25T13:01:30.244Z</time>
      </trkpt>
      <trkpt lat="45.20592" lon="5.09542">
        <ele>494.132</ele>
        <time>2022-09-25T13:01:37.183Z</time>
      </trkpt>
      <trkpt lat="45.20572" lon="5.09498">
        <ele>495.77</ele>
        <time>2022-09-25T13:01:44.130Z</time>
      </trkpt>
      <trkpt lat="45.20467" lon="5.09392">
        <ele>495.147</ele>
        <time>2022-09-25T13:01:51.102Z</time>
      </trkpt>
      <trkpt lat="45.20348" lon="5.09202">
        <ele>490.443</ele>
        <time>2022-09-25T13:01:58.110Z</time>
      </trkpt>
      <trkpt lat="45.20273" lon="5.09053">
        <ele>489.393</ele>
        <time>2022-09-25T13:02:05.144Z</time>
      </trkpt>
      <trkpt lat="45.20243" lon="5.09014">
        <ele>488.388</ele>
        <time>2022-09-25T13:02:12.186Z</time>
      </trkpt>
      <trkpt lat="45.20193" lon="5.08976">
        <ele>487.341</ele>
        <time>2022-09-25T13:02:19.240Z</time>
      </trkpt>
      <trkpt lat="45.20171" lon="5.0895">
        <ele>487.595</ele>
        <time>2022-09-25T13:02:26.299Z</time>
      </trkpt>
      <trkpt lat="45.20095" lon="5.08784">
        <ele>488.986</ele>
        <time>2022-09-25T13:02:33.386Z</time>
      </trkpt>
      <trkpt lat="45.20057" lon="5.08627">
        <ele>489.034</ele>
        <time>2022-09-25T13:02:40.497Z</time>
      </trkpt>
      <trkpt lat="45.20011" lon="5.08496">
        <ele>489.847</ele>
        <time>2022-09-25T13:02:47.628Z</time>
      </trkpt>
      <trkpt lat="45.20006" lon="5.08457">
        <ele>489.096</ele>
        <time>2022-09-25T13:02:54.765Z</time>
      </trkpt>
      <trkpt lat="45.20007" lon="5.08375">
        <ele>487.213</ele>
        <time>2022-09-25T13:03:01.914Z</time>
      </trkpt>
      <trkpt lat="45.20026" lon="5.08227">
        <ele>488.41</ele>
        <time>2022-09-25T13:03:09.084Z</time>
      </trkpt>
      <trkpt lat="45.20023" lon="5.08166">
        <ele>488.87</ele>
        <time>2022-09-25T13:03:16.263Z</time>
      </trkpt>
      <trkpt lat="45.2001" lon="5.08095">
        <ele>486.094</ele>
        <time>2022-09-25T13:03:23.452Z</time>
      </trkpt>
      <trkpt lat="45.19991" lon="5.08068">
        <ele>482.641</ele>
        <time>2022-09-25T13:03:30.646Z</time>
      </trkpt>
      <trkpt lat="45.19971" lon="5.08052">
        <ele>480.699</ele>
        <time>2022-09-25T13:03:37.845Z</time>
      </trkpt>
      <trkpt lat="45.19899" lon="5.08014">
        <ele>476.116</ele>
        <time>2022-09-25T13:03:45.059Z</time>
      </trkpt>
      <trkpt lat="45.1985" lon="5.08">
        <ele>474.132</ele>
        <time>2022-09-25T13:03:52.283Z</time>
      </trkpt>
      <trkpt lat="45.19786" lon="5.07964">
        <ele>469.743</ele>
        <time>2022-09-25T13:03:59.521Z</time>
      </trkpt>
      <trkpt lat="45.19753" lon="5.07939">
        <ele>467.679</ele>
        <time>2022-09-25T13:04:06.767Z</time>
      </trkpt>
      <trkpt lat="45.197" lon="5.0788">
        <ele>466.725</ele>
        <time>2022-09-25T13:04:14.026Z</time>
      </trkpt>
      <trkpt lat="45.19679" lon="5.07847">
        <ele>465.745</ele>
        <time>2022-09-25T13:04:21.291Z</time>
      </trkpt>
      <trkpt lat="45.1965" lon="5.07774">
        <ele>467.839</ele>
        <time>2022-09-25T13:04:28.568Z</time>
      </trkpt>
      <trkpt lat="45.19623" lon="5.07651">
        <ele>470.869</ele>
        <time>2022-09-25T13:04:35.863Z</time>
      </trkpt>
      <trkpt lat="45.19608" lon="5.07598">
        <ele>471.487</ele>
        <time>2022-09-25T13:04:43.166Z</time>
      </trkpt>
      <trkpt lat="45.19596" lon="5.07583">
        <ele>471.77</ele>
        <time>2022-09-25T13:04:50.473Z</time>
      </trkpt>
      <trkpt lat="45.1957" lon="5.07562">
        <ele>470.828</ele>
        <time>2022-09-25T13:04:57.786Z</time>
      </trkpt>
      <trkpt lat="45.1951" lon="5.07541">
        <ele>468.374</ele>
        <time>2022-09-25T13:05:05.111Z</time>
      </trkpt>
      <trkpt lat="45.19474" lon="5.07514">
        <ele>468.275</ele>
        <time>2022-09-25T13:05:12.444Z</time>
      </trkpt>
      <trkpt lat="45.19449" lon="5.07503">
        <ele>469.311</ele>
        <time>2022-09-25T13:05:19.782Z</time>
      </trkpt>
      <trkpt lat="45.1935" lon="5.07489">
        <ele>469.731</ele>
        <time>2022-09-25T13:05:27.140Z</time>
      </trkpt>
      <trkpt lat="45.19219" lon="5.07462">
        <ele>462.115</ele>
        <time>2022-09-25T13:05:34.525Z</time>
      </trkpt>
      <trkpt lat="45.19099" lon="5.07415">
        <ele>463.688</ele>
        <time>2022-09-25T13:05:41.935Z</time>
      </trkpt>
      <trkpt lat="45.18989" lon="5.07393">
        <ele>463.618</ele>
        <time>2022-09-25T13:05:49.367Z</time>
      </trkpt>
      <trkpt lat="45.18966" lon="5.07376">
        <ele>462.636</ele>
        <time>2022-09-25T13:05:56.804Z</time>
      </trkpt>
      <trkpt lat="45.1891" lon="5.07268">
        <ele>454.864</ele>
        <time>2022-09-25T13:06:04.260Z</time>
      </trkpt>
      <trkpt lat="45.18856" lon="5.07125">
        <ele>450.391</ele>
        <time>2022-09-25T13:06:11.739Z</time>
      </trkpt>
      <trkpt lat="45.18809" lon="5.07052">
        <ele>448.678</ele>
        <time>2022-09-25T13:06:19.232Z</time>
      </trkpt>
      <trkpt lat="45.18752" lon="5.0692">
        <ele>451.308</ele>
        <time>2022-09-25T13:06:26.747Z</time>
      </trkpt>
      <trkpt lat="45.18718" lon="5.06877">
        <ele>451.932</ele>
        <time>2022-09-25T13:06:34.271Z</time>
      </trkpt>
      <trkpt lat="45.18701" lon="5.06846">
        <ele>451.877</ele>
        <time>2022-09-25T13:06:41.801Z</time>
      </trkpt>
      <trkpt lat="45.18555" lon="5.06671">
        <ele>448.154</ele>
        <time>2022-09-25T13:06:49.369Z</time>
      </trkpt>
      <trkpt lat="45.18494" lon="5.06616">
        <ele>446.924</ele>
        <time>2022-09-25T13:06:56.951Z</time>
      </trkpt>
      <trkpt lat="45.18217" lon="5.06493">
        <ele>444.387</ele>
        <time>2022-09-25T13:07:04.591Z</time>
      </trkpt>
      <trkpt lat="45.18171" lon="5.06487">
        <ele>443.376</ele>
        <time>2022-09-25T13:07:12.241Z</time>
      </trkpt>
      <trkpt lat="45.18148" lon="5.06474">
        <ele>443.708</ele>
        <time>2022-09-25T13:07:19.896Z</time>
      </trkpt>
      <trkpt lat="45.18126" lon="5.0644">
        <ele>444.669</ele>
        <time>2022-09-25T13:07:27.557Z</time>
      </trkpt>
      <trkpt lat="45.18087" lon="5.06417">
        <ele>443.034</ele>
        <time>2022-09-25T13:07:35.227Z</time>
      </trkpt>
      <trkpt lat="45.1798" lon="5.06409">
        <ele>428.51</ele>
        <time>2022-09-25T13:07:42.918Z</time>
      </trkpt>
      <trkpt lat="45.17927" lon="5.06361">
        <ele>417.014</ele>
        <time>2022-09-25T13:07:50.622Z</time>
      </trkpt>
      <trkpt lat="45.17901" lon="5.06317">
        <ele>411.265</ele>
        <time>2022-09-25T13:07:58.334Z</time>
      </trkpt>
      <trkpt lat="45.17879" lon="5.06299">
        <ele>407.885</ele>
        <time>2022-09-25T13:08:06.051Z</time>
      </trkpt>
      <trkpt lat="45.17835" lon="5.06323">
        <ele>405.688</ele>
        <time>2022-09-25T13:08:13.777Z</time>
      </trkpt>
      <trkpt lat="45.17788" lon="5.06338">
        <ele>401.34</ele>
        <time>2022-09-25T13:08:21.513Z</time>
      </trkpt>
      <trkpt lat="45.17715" lon="5.06304">
        <ele>389.879</ele>
        <time>2022-09-25T13:08:29.264Z</time>
      </trkpt>
      <trkpt lat="45.17688" lon="5.06294">
        <ele>385.932</ele>
        <time>2022-09-25T13:08:37.021Z</time>
      </trkpt>
      <trkpt lat="45.17686" lon="5.06303">
        <ele>385.592</ele>
        <time>2022-09-25T13:08:44.779Z</time>
      </trkpt>
      <trkpt lat="45.17655" lon="5.06211">
        <ele>381.464</ele>
        <time>2022-09-25T13:08:52.552Z</time>
      </trkpt>
      <trkpt lat="45.17629" lon="5.06174">
        <ele>379.467</ele>
        <time>2022-09-25T13:09:00.332Z</time>
      </trkpt>
      <trkpt lat="45.17622" lon="5.06101">
        <ele>379.804</ele>
        <time>2022-09-25T13:09:08.123Z</time>
      </trkpt>
      <trkpt lat="45.17593" lon="5.06029">
        <ele>379.847</ele>
        <time>2022-09-25T13:09:15.925Z</time>
      </trkpt>
      <trkpt lat="45.17577" lon="5.06002">
        <ele>379.443</ele>
        <time>2022-09-25T13:09:23.732Z</time>
      </trkpt>
      <trkpt lat="45.17546" lon="5.05967">
        <ele>377.75</ele>
        <time>2022-09-25T13:09:31.547Z</time>
      </trkpt>
      <trkpt lat="45.17497" lon="5.05879">
        <ele>373.368</ele>
        <time>2022-09-25T13:09:39.378Z</time>
      </trkpt>
      <trkpt lat="45.17389" lon="5.05771">
        <ele>364.724</ele>
        <time>2022-09-25T13:09:47.236Z</time>
      </trkpt>
      <trkpt lat="45.17322" lon="5.05715">
        <ele>359.986</ele>
        <time>2022-09-25T13:09:55.109Z</time>
      </trkpt>
      <trkpt lat="45.17269" lon="5.05692">
        <ele>355.974</ele>
        <time>2022-09-25T13:10:02.993Z</time>
      </trkpt>
      <trkpt lat="45.17245" lon="5.05676">
        <ele>353.005</ele>
        <time>2022-09-25T13:10:10.883Z</time>
      </trkpt>
      <trkpt lat="45.17188" lon="5.05623">
        <ele>348.69</ele>
        <time>2022-09-25T13:10:18.786Z</time>
      </trkpt>
      <trkpt lat="45.17146" lon="5.05608">
        <ele>349.285</ele>
        <time>2022-09-25T13:10:26.698Z</time>
      </trkpt>
      <trkpt lat="45.17103" lon="5.05603">
        <ele>350</ele>
        <time>2022-09-25T13:10:34.618Z</time>
      </trkpt>
      <trkpt lat="45.17067" lon="5.05607">
        <ele>349.91</ele>
        <time>2022-09-25T13:10:42.546Z</time>
      </trkpt>
      <trkpt lat="45.17033" lon="5.05623">
        <ele>347.675</ele>
        <time>2022-09-25T13:10:50.481Z</time>
      </trkpt>
      <trkpt lat="45.17012" lon="5.05624">
        <ele>345.874</ele>
        <time>2022-09-25T13:10:58.420Z</time>
      </trkpt>
      <trkpt lat="45.1699" lon="5.05608">
        <ele>343.877</ele>
        <time>2022-09-25T13:11:06.364Z</time>
      </trkpt>
      <trkpt lat="45.16961" lon="5.05603">
        <ele>340.518</ele>
        <time>2022-09-25T13:11:14.314Z</time>
      </trkpt>
      <trkpt lat="45.16927" lon="5.05584">
        <ele>335.938</ele>
        <time>2022-09-25T13:11:22.271Z</time>
      </trkpt>
      <trkpt lat="45.16881" lon="5.05568">
        <ele>329.872</ele>
        <time>2022-09-25T13:11:30.238Z</time>
      </trkpt>
      <trkpt lat="45.16802" lon="5.05564">
        <ele>320.94</ele>
        <time>2022-09-25T13:11:38.221Z</time>
      </trkpt>
      <trkpt lat="45.16766" lon="5.05583">
        <ele>317.944</ele>
        <time>2022-09-25T13:11:46.211Z</time>
      </trkpt>
      <trkpt lat="45.16737" lon="5.05581">
        <ele>316.022</ele>
        <time>2022-09-25T13:11:54.207Z</time>
      </trkpt>
      <trkpt lat="45.16686" lon="5.0553">
        <ele>313.89</ele>
        <time>2022-09-25T13:12:02.216Z</time>
      </trkpt>
      <trkpt lat="45.16663" lon="5.05499">
        <ele>312.474</ele>
        <time>2022-09-25T13:12:10.231Z</time>
      </trkpt>
      <trkpt lat="45.16633" lon="5.05437">
        <ele>309.802</ele>
        <time>2022-09-25T13:12:18.257Z</time>
      </trkpt>
      <trkpt lat="45.16673" lon="5.05511">
        <ele>313.33</ele>
        <time>2022-09-25T13:12:26.296Z</time>
      </trkpt>
      <trkpt lat="45.16646" lon="5.05468">
        <ele>310.804</ele>
        <time>2022-09-25T13:12:34.343Z</time>
      </trkpt>
      <trkpt lat="45.16546" lon="5.05253">
        <ele>303.119</ele>
        <time>2022-09-25T13:12:42.426Z</time>
      </trkpt>
      <trkpt lat="45.16524" lon="5.0523">
        <ele>300.78</ele>
        <time>2022-09-25T13:12:50.515Z</time>
      </trkpt>
      <trkpt lat="45.16496" lon="5.05226">
        <ele>300.181</ele>
        <time>2022-09-25T13:12:58.609Z</time>
      </trkpt>
      <trkpt lat="45.16443" lon="5.05253">
        <ele>296.29</ele>
        <time>2022-09-25T13:13:06.715Z</time>
      </trkpt>
      <trkpt lat="45.16419" lon="5.05273">
        <ele>291.87</ele>
        <time>2022-09-25T13:13:14.826Z</time>
      </trkpt>
      <trkpt lat="45.16401" lon="5.05255">
        <ele>290.482</ele>
        <time>2022-09-25T13:13:22.942Z</time>
      </trkpt>
      <trkpt lat="45.16384" lon="5.05222">
        <ele>287.109</ele>
        <time>2022-09-25T13:13:31.064Z</time>
      </trkpt>
      <trkpt lat="45.16363" lon="5.05148">
        <ele>281.494</ele>
        <time>2022-09-25T13:13:39.197Z</time>
      </trkpt>
      <trkpt lat="45.16336" lon="5.0513">
        <ele>279.989</ele>
        <time>2022-09-25T13:13:47.336Z</time>
      </trkpt>
      <trkpt lat="45.16307" lon="5.05132">
        <ele>279.42</ele>
        <time>2022-09-25T13:13:55.481Z</time>
      </trkpt>
      <trkpt lat="45.16277" lon="5.05142">
        <ele>278.692</ele>
        <time>2022-09-25T13:14:03.632Z</time>
      </trkpt>
      <trkpt lat="45.16247" lon="5.05159">
        <ele>277.339</ele>
        <time>2022-09-25T13:14:11.789Z</time>
      </trkpt>
      <trkpt lat="45.16235" lon="5.05192">
        <ele>276.664</ele>
        <time>2022-09-25T13:14:19.951Z</time>
      </trkpt>
      <trkpt lat="45.15984" lon="5.05548">
        <ele>275.276</ele>
        <time>2022-09-25T13:14:28.184Z</time>
      </trkpt>
      <trkpt lat="45.15982" lon="5.0562">
        <ele>276.536</ele>
        <time>2022-09-25T13:14:36.428Z</time>
      </trkpt>
      <trkpt lat="45.15971" lon="5.0565">
        <ele>277.522</ele>
        <time>2022-09-25T13:14:44.676Z</time>
      </trkpt>
      <trkpt lat="45.15943" lon="5.05658">
        <ele>277.99</ele>
        <time>2022-09-25T13:14:52.930Z</time>
      </trkpt>
      <trkpt lat="45.15933" lon="5.05636">
        <ele>278.603</ele>
        <time>2022-09-25T13:15:01.188Z</time>
      </trkpt>
      <trkpt lat="45.1592" lon="5.05563">
        <ele>280.003</ele>
        <time>2022-09-25T13:15:09.456Z</time>
      </trkpt>
      <trkpt lat="45.15907" lon="5.0554">
        <ele>281.141</ele>
        <time>2022-09-25T13:15:17.729Z</time>
      </trkpt>
      <trkpt lat="45.15882" lon="5.05516">
        <ele>283.551</ele>
        <time>2022-09-25T13:15:26.008Z</time>
      </trkpt>
      <trkpt lat="45.1587" lon="5.05528">
        <ele>286.024</ele>
        <time>2022-09-25T13:15:34.290Z</time>
      </trkpt>
      <trkpt lat="45.15869" lon="5.05538">
        <ele>286.683</ele>
        <time>2022-09-25T13:15:42.573Z</time>
      </trkpt>
      <trkpt lat="45.15881" lon="5.05573">
        <ele>285.41</ele>
        <time>2022-09-25T13:15:50.862Z</time>
      </trkpt>
      <trkpt lat="45.1588" lon="5.05602">
        <ele>285.914</ele>
        <time>2022-09-25T13:15:59.155Z</time>
      </trkpt>
      <trkpt lat="45.15856" lon="5.05649">
        <ele>284.688</ele>
        <time>2022-09-25T13:16:07.456Z</time>
      </trkpt>
      <trkpt lat="45.15848" lon="5.05653">
        <ele>285.358</ele>
        <time>2022-09-25T13:16:15.759Z</time>
      </trkpt>
      <trkpt lat="45.15816" lon="5.0565">
        <ele>291.288</ele>
        <time>2022-09-25T13:16:24.068Z</time>
      </trkpt>
      <trkpt lat="45.15802" lon="5.05642">
        <ele>294.726</ele>
        <time>2022-09-25T13:16:32.380Z</time>
      </trkpt>
      <trkpt lat="45.15763" lon="5.05587">
        <ele>305.529</ele>
        <time>2022-09-25T13:16:40.703Z</time>
      </trkpt>
      <trkpt lat="45.1575" lon="5.05582">
        <ele>307.675</ele>
        <time>2022-09-25T13:16:49.029Z</time>
      </trkpt>
      <trkpt lat="45.15721" lon="5.0561">
        <ele>311.155</ele>
        <time>2022-09-25T13:16:57.362Z</time>
      </trkpt>
      <trkpt lat="45.1568" lon="5.05613">
        <ele>316.517</ele>
        <time>2022-09-25T13:17:05.703Z</time>
      </trkpt>
      <trkpt lat="45.15637" lon="5.05628">
        <ele>321.073</ele>
        <time>2022-09-25T13:17:14.053Z</time>
      </trkpt>
      <trkpt lat="45.15547" lon="5.05705">
        <ele>326.831</ele>
        <time>2022-09-25T13:17:22.424Z</time>
      </trkpt>
      <trkpt lat="45.15499" lon="5.05705">
        <ele>333.009</ele>
        <time>2022-09-25T13:17:30.804Z</time>
      </trkpt>
      <trkpt lat="45.15385" lon="5.05738">
        <ele>336.737</ele>
        <time>2022-09-25T13:17:39.208Z</time>
      </trkpt>
      <trkpt lat="45.15223" lon="5.0574">
        <ele>340.344</ele>
        <time>2022-09-25T13:17:47.644Z</time>
      </trkpt>
      <trkpt lat="45.15179" lon="5.05765">
        <ele>341.072</ele>
        <time>2022-09-25T13:17:56.089Z</time>
      </trkpt>
      <trkpt lat="45.15038" lon="5.05809">
        <ele>341.069</ele>
        <time>2022-09-25T13:18:04.563Z</time>
      </trkpt>
      <trkpt lat="45.14969" lon="5.05842">
        <ele>342.249</ele>
        <time>2022-09-25T13:18:13.052Z</time>
      </trkpt>
      <trkpt lat="45.14791" lon="5.05833">
        <ele>349.254</ele>
        <time>2022-09-25T13:18:21.577Z</time>
      </trkpt>
      <trkpt lat="45.14697" lon="5.05837">
        <ele>351.337</ele>
        <time>2022-09-25T13:18:30.120Z</time>
      </trkpt>
      <trkpt lat="45.14571" lon="5.05785">
        <ele>349.777</ele>
        <time>2022-09-25T13:18:38.690Z</time>
      </trkpt>
      <trkpt lat="45.1447" lon="5.05769">
        <ele>355.926</ele>
        <time>2022-09-25T13:18:47.280Z</time>
      </trkpt>
      <trkpt lat="45.14436" lon="5.05758">
        <ele>359.464</ele>
        <time>2022-09-25T13:18:55.877Z</time>
      </trkpt>
      <trkpt lat="45.14431" lon="5.05682">
        <ele>352.218</ele>
        <time>2022-09-25T13:19:04.485Z</time>
      </trkpt>
      <trkpt lat="45.14441" lon="5.05627">
        <ele>346.5</ele>
        <time>2022-09-25T13:19:13.101Z</time>
      </trkpt>
      <trkpt lat="45.14414" lon="5.05567">
        <ele>342.693</ele>
        <time>2022-09-25T13:19:21.727Z</time>
      </trkpt>
      <trkpt lat="45.14364" lon="5.05538">
        <ele>339.05</ele>
        <time>2022-09-25T13:19:30.364Z</time>
      </trkpt>
      <trkpt lat="45.14323" lon="5.05504">
        <ele>335.823</ele>
        <time>2022-09-25T13:19:39.010Z</time>
      </trkpt>
      <trkpt lat="45.14314" lon="5.05475">
        <ele>332.503</ele>
        <time>2022-09-25T13:19:47.661Z</time>
      </trkpt>
      <trkpt lat="45.14301" lon="5.05378">
        <ele>324.326</ele>
        <time>2022-09-25T13:19:56.326Z</time>
      </trkpt>
      <trkpt lat="45.1428" lon="5.05324">
        <ele>321.8</ele>
        <time>2022-09-25T13:20:04.999Z</time>
      </trkpt>
      <trkpt lat="45.14246" lon="5.05284">
        <ele>318.964</ele>
        <time>2022-09-25T13:20:13.681Z</time>
      </trkpt>
      <trkpt lat="45.14235" lon="5.05233">
        <ele>316.724</ele>
        <time>2022-09-25T13:20:22.371Z</time>
      </trkpt>
      <trkpt lat="45.14236" lon="5.05185">
        <ele>314.942</ele>
        <time>2022-09-25T13:20:31.068Z</time>
      </trkpt>
      <trkpt lat="45.1423" lon="5.05134">
        <ele>311.117</ele>
        <time>2022-09-25T13:20:39.772Z</time>
      </trkpt>
      <trkpt lat="45.14233" lon="5.0506">
        <ele>304.545</ele>
        <time>2022-09-25T13:20:48.486Z</time>
      </trkpt>
      <trkpt lat="45.14246" lon="5.04976">
        <ele>297.621</ele>
        <time>2022-09-25T13:20:57.212Z</time>
      </trkpt>
      <trkpt lat="45.14241" lon="5.04909">
        <ele>290.032</ele>
        <time>2022-09-25T13:21:05.948Z</time>
      </trkpt>
      <trkpt lat="45.14248" lon="5.04861">
        <ele>288.551</ele>
        <time>2022-09-25T13:21:14.691Z</time>
      </trkpt>
      <trkpt lat="45.14239" lon="5.04704">
        <ele>291.866</ele>
        <time>2022-09-25T13:21:23.456Z</time>
      </trkpt>
      <trkpt lat="45.14243" lon="5.04675">
        <ele>292.026</ele>
        <time>2022-09-25T13:21:32.225Z</time>
      </trkpt>
      <trkpt lat="45.14268" lon="5.04574">
        <ele>293.805</ele>
        <time>2022-09-25T13:21:41.009Z</time>
      </trkpt>
      <trkpt lat="45.14297" lon="5.04502">
        <ele>295.197</ele>
        <time>2022-09-25T13:21:49.805Z</time>
      </trkpt>
      <trkpt lat="45.1439" lon="5.04339">
        <ele>294.198</ele>
        <time>2022-09-25T13:21:58.631Z</time>
      </trkpt>
      <trkpt lat="45.14413" lon="5.04316">
        <ele>294.392</ele>
        <time>2022-09-25T13:22:07.462Z</time>
      </trkpt>
      <trkpt lat="45.14433" lon="5.04284">
        <ele>294.303</ele>
        <time>2022-09-25T13:22:16.300Z</time>
      </trkpt>
      <trkpt lat="45.1445" lon="5.04201">
        <ele>293.061</ele>
        <time>2022-09-25T13:22:25.150Z</time>
      </trkpt>
      <trkpt lat="45.14439" lon="5.04248">
        <ele>293.546</ele>
        <time>2022-09-25T13:22:34.007Z</time>
      </trkpt>
      <trkpt lat="45.1444" lon="5.0428">
        <ele>294.368</ele>
        <time>2022-09-25T13:22:42.868Z</time>
      </trkpt>
      <trkpt lat="45.14457" lon="5.04293">
        <ele>295.279</ele>
        <time>2022-09-25T13:22:51.733Z</time>
      </trkpt>
      <trkpt lat="45.1455" lon="5.04222">
        <ele>296.1</ele>
        <time>2022-09-25T13:23:00.619Z</time>
      </trkpt>
      <trkpt lat="45.14636" lon="5.04134">
        <ele>295.746</ele>
        <time>2022-09-25T13:23:09.526Z</time>
      </trkpt>
      <trkpt lat="45.14684" lon="5.04093">
        <ele>294.603</ele>
        <time>2022-09-25T13:23:18.445Z</time>
      </trkpt>
      <trkpt lat="45.14774" lon="5.04066">
        <ele>292.92</ele>
        <time>2022-09-25T13:23:27.382Z</time>
      </trkpt>
      <trkpt lat="45.15008" lon="5.04049">
        <ele>287.893</ele>
        <time>2022-09-25T13:23:36.366Z</time>
      </trkpt>
      <trkpt lat="45.15022" lon="5.04064">
        <ele>288.026</ele>
        <time>2022-09-25T13:23:45.354Z</time>
      </trkpt>
      <trkpt lat="45.14902" lon="5.04271">
        <ele>296.268</ele>
        <time>2022-09-25T13:23:54.379Z</time>
      </trkpt>
      <trkpt lat="45.14894" lon="5.04287">
        <ele>297.225</ele>
        <time>2022-09-25T13:24:03.407Z</time>
      </trkpt>
      <trkpt lat="45.14901" lon="5.04298">
        <ele>298.2</ele>
        <time>2022-09-25T13:24:12.437Z</time>
      </trkpt>
      <trkpt lat="45.15006" lon="5.04306">
        <ele>300.9</ele>
        <time>2022-09-25T13:24:21.488Z</time>
      </trkpt>
      <trkpt lat="45.15044" lon="5.04288">
        <ele>298.606</ele>
        <time>2022-09-25T13:24:30.547Z</time>
      </trkpt>
      <trkpt lat="45.15066" lon="5.04259">
        <ele>296.3</ele>
        <time>2022-09-25T13:24:39.612Z</time>
      </trkpt>
      <trkpt lat="45.15094" lon="5.04263">
        <ele>296.104</ele>
        <time>2022-09-25T13:24:48.683Z</time>
      </trkpt>
      <trkpt lat="45.15113" lon="5.04293">
        <ele>297.938</ele>
        <time>2022-09-25T13:24:57.760Z</time>
      </trkpt>
      <trkpt lat="45.15272" lon="5.04301">
        <ele>275.31</ele>
        <time>2022-09-25T13:25:06.868Z</time>
      </trkpt>
      <trkpt lat="45.15304" lon="5.04294">
        <ele>273.905</ele>
        <time>2022-09-25T13:25:15.983Z</time>
      </trkpt>
      <trkpt lat="45.15353" lon="5.04231">
        <ele>270.402</ele>
        <time>2022-09-25T13:25:25.111Z</time>
      </trkpt>
      <trkpt lat="45.15382" lon="5.04152">
        <ele>269.776</ele>
        <time>2022-09-25T13:25:34.252Z</time>
      </trkpt>
      <trkpt lat="45.15387" lon="5.0406">
        <ele>267.775</ele>
        <time>2022-09-25T13:25:43.406Z</time>
      </trkpt>
      <trkpt lat="45.15402" lon="5.04031">
        <ele>265.78</ele>
        <time>2022-09-25T13:25:52.565Z</time>
      </trkpt>
      <trkpt lat="45.15427" lon="5.04012">
        <ele>264.446</ele>
        <time>2022-09-25T13:26:01.729Z</time>
      </trkpt>
      <trkpt lat="45.15492" lon="5.04005">
        <ele>262.439</ele>
        <time>2022-09-25T13:26:10.907Z</time>
      </trkpt>
      <trkpt lat="45.1551" lon="5.03992">
        <ele>260.813</ele>
        <time>2022-09-25T13:26:20.089Z</time>
      </trkpt>
      <trkpt lat="45.15514" lon="5.03948">
        <ele>259.014</ele>
        <time>2022-09-25T13:26:29.277Z</time>
      </trkpt>
      <trkpt lat="45.15494" lon="5.03937">
        <ele>259.089</ele>
        <time>2022-09-25T13:26:38.469Z</time>
      </trkpt>
      <trkpt lat="45.15446" lon="5.03961">
        <ele>260.911</ele>
        <time>2022-09-25T13:26:47.671Z</time>
      </trkpt>
      <trkpt lat="45.15423" lon="5.03963">
        <ele>261.592</ele>
        <time>2022-09-25T13:26:56.878Z</time>
      </trkpt>
      <trkpt lat="45.15367" lon="5.03895">
        <ele>260.319</ele>
        <time>2022-09-25T13:27:06.100Z</time>
      </trkpt>
      <trkpt lat="45.15262" lon="5.03724">
        <ele>257.762</ele>
        <time>2022-09-25T13:27:15.354Z</time>
      </trkpt>
      <trkpt lat="45.15161" lon="5.03577">
        <ele>255.822</ele>
        <time>2022-09-25T13:27:24.637Z</time>
      </trkpt>
      <trkpt lat="45.14978" lon="5.03231">
        <ele>254.358</ele>
        <time>2022-09-25T13:27:33.981Z</time>
      </trkpt>
      <trkpt lat="45.14905" lon="5.03146">
        <ele>254.018</ele>
        <time>2022-09-25T13:27:43.344Z</time>
      </trkpt>
      <trkpt lat="45.14764" lon="5.02929">
        <ele>252.995</ele>
        <time>2022-09-25T13:27:52.748Z</time>
      </trkpt>
      <trkpt lat="45.14627" lon="5.02786">
        <ele>256.381</ele>
        <time>2022-09-25T13:28:02.186Z</time>
      </trkpt>
      <trkpt lat="45.14576" lon="5.02756">
        <ele>257.372</ele>
        <time>2022-09-25T13:28:11.636Z</time>
      </trkpt>
      <trkpt lat="45.14504" lon="5.02703">
        <ele>259.737</ele>
        <time>2022-09-25T13:28:21.102Z</time>
      </trkpt>
      <trkpt lat="45.1442" lon="5.02607">
        <ele>258.288</ele>
        <time>2022-09-25T13:28:30.589Z</time>
      </trkpt>
      <trkpt lat="45.14404" lon="5.02565">
        <ele>256.173</ele>
        <time>2022-09-25T13:28:40.083Z</time>
      </trkpt>
      <trkpt lat="45.14411" lon="5.0252">
        <ele>252.628</ele>
        <time>2022-09-25T13:28:49.584Z</time>
      </trkpt>
      <trkpt lat="45.14487" lon="5.0231">
        <ele>239.28</ele>
        <time>2022-09-25T13:28:59.118Z</time>
      </trkpt>
      <trkpt lat="45.14506" lon="5.02272">
        <ele>238.731</ele>
        <time>2022-09-25T13:29:08.659Z</time>
      </trkpt>
      <trkpt lat="45.14599" lon="5.02167">
        <ele>240.21</ele>
        <time>2022-09-25T13:29:18.223Z</time>
      </trkpt>
      <trkpt lat="45.14658" lon="5.0205">
        <ele>241.512</ele>
        <time>2022-09-25T13:29:27.808Z</time>
      </trkpt>
      <trkpt lat="45.14669" lon="5.02031">
        <ele>241.941</ele>
        <time>2022-09-25T13:29:37.396Z</time>
      </trkpt>
      <trkpt lat="45.14678" lon="5.02028">
        <ele>242.251</ele>
        <time>2022-09-25T13:29:46.986Z</time>
      </trkpt>
      <trkpt lat="45.14676" lon="5.02058">
        <ele>241.913</ele>
        <time>2022-09-25T13:29:56.580Z</time>
      </trkpt>
      <trkpt lat="45.14686" lon="5.02061">
        <ele>242.246</ele>
        <time>2022-09-25T13:30:06.176Z</time>
      </trkpt>
      <trkpt lat="45.14674" lon="5.02055">
        <ele>241.878</ele>
        <time>2022-09-25T13:30:15.775Z</time>
      </trkpt>
      <trkpt lat="45.14677" lon="5.02027">
        <ele>242.253</ele>
        <time>2022-09-25T13:30:25.378Z</time>
      </trkpt>
      <trkpt lat="45.14674" lon="5.02028">
        <ele>242.13</ele>
        <time>2022-09-25T13:30:34.982Z</time>
      </trkpt>
      <trkpt lat="45.14673" lon="5.02017">
        <ele>242.255</ele>
        <time>2022-09-25T13:30:44.587Z</time>
      </trkpt>
      <trkpt lat="45.1471" lon="5.01945">
        <ele>244.48</ele>
        <time>2022-09-25T13:30:54.205Z</time>
      </trkpt>
      <trkpt lat="45.14864" lon="5.01725">
        <ele>251.863</ele>
        <time>2022-09-25T13:31:03.866Z</time>
      </trkpt>
      <trkpt lat="45.14835" lon="5.01677">
        <ele>251.225</ele>
        <time>2022-09-25T13:31:13.536Z</time>
      </trkpt>
    </trkseg>
  </trk>
</gpx>